<?xml version="1.0" encoding="UTF-8" standalone="no" ?>
<gpx xmlns="http://www.topografix.com/GPX/1/1" xmlns:xsi="http://www.w3.org/2001/XMLSchema-instance" xsi:schemaLocation="http://www.topografix.com/GPX/1/1 http://www.topografix.com/GPX/1/1/gpx.xsd" version="1.1" creator="VisuGPX - https://www.visugpx.com">
  <metadata>
    <name>2018.07.15 horrues </name>
    <desc><![CDATA[File with points/tracks from Locus Map/3.31.3]]></desc>
  </metadata>
  <trk>
    <name><![CDATA[2018-07-15 09:05:29]]></name>
    <trkseg>
      <trkpt lat="50.60871" lon="4.04365">
        <ele>49.18</ele>
        <time>2018-07-15T07:06:59.000Z</time>
      </trkpt>
      <trkpt lat="50.60869" lon="4.04348">
        <ele>58.71</ele>
        <time>2018-07-15T07:07:09.000Z</time>
      </trkpt>
      <trkpt lat="50.60866" lon="4.04342">
        <ele>61.62</ele>
        <time>2018-07-15T07:07:19.000Z</time>
      </trkpt>
      <trkpt lat="50.60868" lon="4.04348">
        <ele>63.61</ele>
        <time>2018-07-15T07:07:29.000Z</time>
      </trkpt>
      <trkpt lat="50.60874" lon="4.04353">
        <ele>66.43</ele>
        <time>2018-07-15T07:07:39.000Z</time>
      </trkpt>
      <trkpt lat="50.60879" lon="4.04358">
        <ele>67.62</ele>
        <time>2018-07-15T07:07:49.000Z</time>
      </trkpt>
      <trkpt lat="50.6089" lon="4.04364">
        <ele>64.74</ele>
        <time>2018-07-15T07:07:59.000Z</time>
      </trkpt>
      <trkpt lat="50.60901" lon="4.04364">
        <ele>63.68</ele>
        <time>2018-07-15T07:08:09.000Z</time>
      </trkpt>
      <trkpt lat="50.60911" lon="4.04361">
        <ele>63.68</ele>
        <time>2018-07-15T07:08:19.000Z</time>
      </trkpt>
      <trkpt lat="50.60923" lon="4.04352">
        <ele>63.16</ele>
        <time>2018-07-15T07:08:29.000Z</time>
      </trkpt>
      <trkpt lat="50.60934" lon="4.04346">
        <ele>63.87</ele>
        <time>2018-07-15T07:08:39.000Z</time>
      </trkpt>
      <trkpt lat="50.60945" lon="4.04343">
        <ele>67.85</ele>
        <time>2018-07-15T07:08:49.000Z</time>
      </trkpt>
      <trkpt lat="50.60951" lon="4.04333">
        <ele>67.5</ele>
        <time>2018-07-15T07:08:59.000Z</time>
      </trkpt>
      <trkpt lat="50.60942" lon="4.04339">
        <ele>70.23</ele>
        <time>2018-07-15T07:09:09.000Z</time>
      </trkpt>
      <trkpt lat="50.6093" lon="4.04344">
        <ele>71.48</ele>
        <time>2018-07-15T07:09:19.000Z</time>
      </trkpt>
      <trkpt lat="50.60918" lon="4.04338">
        <ele>69.68</ele>
        <time>2018-07-15T07:09:29.000Z</time>
      </trkpt>
      <trkpt lat="50.60912" lon="4.04324">
        <ele>69.45</ele>
        <time>2018-07-15T07:09:39.000Z</time>
      </trkpt>
      <trkpt lat="50.60906" lon="4.04315">
        <ele>67.43</ele>
        <time>2018-07-15T07:09:49.000Z</time>
      </trkpt>
      <trkpt lat="50.60891" lon="4.04323">
        <ele>68.42</ele>
        <time>2018-07-15T07:09:59.000Z</time>
      </trkpt>
      <trkpt lat="50.60883" lon="4.04308">
        <ele>72.87</ele>
        <time>2018-07-15T07:10:09.000Z</time>
      </trkpt>
      <trkpt lat="50.6088" lon="4.04288">
        <ele>69.7</ele>
        <time>2018-07-15T07:10:19.000Z</time>
      </trkpt>
      <trkpt lat="50.60873" lon="4.04273">
        <ele>70.37</ele>
        <time>2018-07-15T07:10:29.000Z</time>
      </trkpt>
      <trkpt lat="50.60874" lon="4.04251">
        <ele>70.43</ele>
        <time>2018-07-15T07:10:39.000Z</time>
      </trkpt>
      <trkpt lat="50.60868" lon="4.04236">
        <ele>68.51</ele>
        <time>2018-07-15T07:10:49.000Z</time>
      </trkpt>
      <trkpt lat="50.60858" lon="4.04231">
        <ele>71.63</ele>
        <time>2018-07-15T07:10:59.000Z</time>
      </trkpt>
      <trkpt lat="50.60853" lon="4.04223">
        <ele>72.67</ele>
        <time>2018-07-15T07:11:09.000Z</time>
      </trkpt>
      <trkpt lat="50.60858" lon="4.04216">
        <ele>72.62</ele>
        <time>2018-07-15T07:11:19.000Z</time>
      </trkpt>
      <trkpt lat="50.60854" lon="4.04196">
        <ele>73.62</ele>
        <time>2018-07-15T07:11:29.000Z</time>
      </trkpt>
      <trkpt lat="50.60857" lon="4.04176">
        <ele>76.19</ele>
        <time>2018-07-15T07:11:39.000Z</time>
      </trkpt>
      <trkpt lat="50.60865" lon="4.04143">
        <ele>78.93</ele>
        <time>2018-07-15T07:11:49.000Z</time>
      </trkpt>
      <trkpt lat="50.60866" lon="4.04126">
        <ele>73.68</ele>
        <time>2018-07-15T07:11:59.000Z</time>
      </trkpt>
      <trkpt lat="50.60866" lon="4.04108">
        <ele>71.7</ele>
        <time>2018-07-15T07:12:09.000Z</time>
      </trkpt>
      <trkpt lat="50.60868" lon="4.04093">
        <ele>71.64</ele>
        <time>2018-07-15T07:12:19.000Z</time>
      </trkpt>
      <trkpt lat="50.60872" lon="4.04081">
        <ele>71.48</ele>
        <time>2018-07-15T07:12:29.000Z</time>
      </trkpt>
      <trkpt lat="50.60878" lon="4.04064">
        <ele>72.87</ele>
        <time>2018-07-15T07:12:39.000Z</time>
      </trkpt>
      <trkpt lat="50.60884" lon="4.04056">
        <ele>69.88</ele>
        <time>2018-07-15T07:12:49.000Z</time>
      </trkpt>
      <trkpt lat="50.60892" lon="4.0404">
        <ele>71.51</ele>
        <time>2018-07-15T07:12:59.000Z</time>
      </trkpt>
      <trkpt lat="50.60896" lon="4.04021">
        <ele>71.92</ele>
        <time>2018-07-15T07:13:09.000Z</time>
      </trkpt>
      <trkpt lat="50.60901" lon="4.04002">
        <ele>70.68</ele>
        <time>2018-07-15T07:13:19.000Z</time>
      </trkpt>
      <trkpt lat="50.60908" lon="4.0398">
        <ele>75.43</ele>
        <time>2018-07-15T07:13:29.000Z</time>
      </trkpt>
      <trkpt lat="50.60924" lon="4.03975">
        <ele>75.31</ele>
        <time>2018-07-15T07:13:39.000Z</time>
      </trkpt>
      <trkpt lat="50.60934" lon="4.03971">
        <ele>77.7</ele>
        <time>2018-07-15T07:13:49.000Z</time>
      </trkpt>
      <trkpt lat="50.60949" lon="4.0396">
        <ele>78.68</ele>
        <time>2018-07-15T07:13:59.000Z</time>
      </trkpt>
      <trkpt lat="50.60956" lon="4.03947">
        <ele>77.99</ele>
        <time>2018-07-15T07:14:09.000Z</time>
      </trkpt>
      <trkpt lat="50.60963" lon="4.03934">
        <ele>75.68</ele>
        <time>2018-07-15T07:14:19.000Z</time>
      </trkpt>
      <trkpt lat="50.60971" lon="4.03906">
        <ele>75.75</ele>
        <time>2018-07-15T07:14:29.000Z</time>
      </trkpt>
      <trkpt lat="50.60981" lon="4.03897">
        <ele>77.43</ele>
        <time>2018-07-15T07:14:39.000Z</time>
      </trkpt>
      <trkpt lat="50.60993" lon="4.03898">
        <ele>75.44</ele>
        <time>2018-07-15T07:14:49.000Z</time>
      </trkpt>
      <trkpt lat="50.61004" lon="4.03889">
        <ele>77.62</ele>
        <time>2018-07-15T07:14:59.000Z</time>
      </trkpt>
      <trkpt lat="50.61015" lon="4.0388">
        <ele>75.94</ele>
        <time>2018-07-15T07:15:09.000Z</time>
      </trkpt>
      <trkpt lat="50.61026" lon="4.03871">
        <ele>77.44</ele>
        <time>2018-07-15T07:15:19.000Z</time>
      </trkpt>
      <trkpt lat="50.61038" lon="4.03858">
        <ele>77.96</ele>
        <time>2018-07-15T07:15:29.000Z</time>
      </trkpt>
      <trkpt lat="50.61046" lon="4.03846">
        <ele>79.45</ele>
        <time>2018-07-15T07:15:39.000Z</time>
      </trkpt>
      <trkpt lat="50.61056" lon="4.03825">
        <ele>80.45</ele>
        <time>2018-07-15T07:15:49.000Z</time>
      </trkpt>
      <trkpt lat="50.61065" lon="4.03815">
        <ele>79.69</ele>
        <time>2018-07-15T07:15:59.000Z</time>
      </trkpt>
      <trkpt lat="50.61072" lon="4.038">
        <ele>78.94</ele>
        <time>2018-07-15T07:16:09.000Z</time>
      </trkpt>
      <trkpt lat="50.61084" lon="4.03784">
        <ele>81.63</ele>
        <time>2018-07-15T07:16:19.000Z</time>
      </trkpt>
      <trkpt lat="50.61093" lon="4.03774">
        <ele>80.74</ele>
        <time>2018-07-15T07:16:29.000Z</time>
      </trkpt>
      <trkpt lat="50.61109" lon="4.03763">
        <ele>84.63</ele>
        <time>2018-07-15T07:16:39.000Z</time>
      </trkpt>
      <trkpt lat="50.61114" lon="4.03752">
        <ele>84.69</ele>
        <time>2018-07-15T07:16:49.000Z</time>
      </trkpt>
      <trkpt lat="50.61131" lon="4.0374">
        <ele>86.5</ele>
        <time>2018-07-15T07:16:59.000Z</time>
      </trkpt>
      <trkpt lat="50.61137" lon="4.03734">
        <ele>85.63</ele>
        <time>2018-07-15T07:17:09.000Z</time>
      </trkpt>
      <trkpt lat="50.61155" lon="4.03723">
        <ele>81.82</ele>
        <time>2018-07-15T07:17:19.000Z</time>
      </trkpt>
      <trkpt lat="50.61163" lon="4.0372">
        <ele>81.69</ele>
        <time>2018-07-15T07:17:29.000Z</time>
      </trkpt>
      <trkpt lat="50.61177" lon="4.03707">
        <ele>82.45</ele>
        <time>2018-07-15T07:17:39.000Z</time>
      </trkpt>
      <trkpt lat="50.61189" lon="4.037">
        <ele>82.75</ele>
        <time>2018-07-15T07:17:49.000Z</time>
      </trkpt>
      <trkpt lat="50.61202" lon="4.03695">
        <ele>83.38</ele>
        <time>2018-07-15T07:17:59.000Z</time>
      </trkpt>
      <trkpt lat="50.61208" lon="4.03677">
        <ele>82.98</ele>
        <time>2018-07-15T07:18:09.000Z</time>
      </trkpt>
      <trkpt lat="50.61226" lon="4.03679">
        <ele>83.39</ele>
        <time>2018-07-15T07:18:19.000Z</time>
      </trkpt>
      <trkpt lat="50.61235" lon="4.03672">
        <ele>82.44</ele>
        <time>2018-07-15T07:18:29.000Z</time>
      </trkpt>
      <trkpt lat="50.6125" lon="4.0366">
        <ele>83.7</ele>
        <time>2018-07-15T07:18:39.000Z</time>
      </trkpt>
      <trkpt lat="50.61261" lon="4.03652">
        <ele>81.76</ele>
        <time>2018-07-15T07:18:49.000Z</time>
      </trkpt>
      <trkpt lat="50.61274" lon="4.03652">
        <ele>84.44</ele>
        <time>2018-07-15T07:18:59.000Z</time>
      </trkpt>
      <trkpt lat="50.61282" lon="4.0364">
        <ele>82.73</ele>
        <time>2018-07-15T07:19:09.000Z</time>
      </trkpt>
      <trkpt lat="50.61294" lon="4.03625">
        <ele>85.94</ele>
        <time>2018-07-15T07:19:19.000Z</time>
      </trkpt>
      <trkpt lat="50.61298" lon="4.03609">
        <ele>87.83</ele>
        <time>2018-07-15T07:19:29.000Z</time>
      </trkpt>
      <trkpt lat="50.61305" lon="4.03587">
        <ele>88.71</ele>
        <time>2018-07-15T07:19:39.000Z</time>
      </trkpt>
      <trkpt lat="50.61307" lon="4.03571">
        <ele>87.63</ele>
        <time>2018-07-15T07:19:49.000Z</time>
      </trkpt>
      <trkpt lat="50.61308" lon="4.03543">
        <ele>88.19</ele>
        <time>2018-07-15T07:19:59.000Z</time>
      </trkpt>
      <trkpt lat="50.61309" lon="4.03522">
        <ele>88.21</ele>
        <time>2018-07-15T07:20:09.000Z</time>
      </trkpt>
      <trkpt lat="50.61312" lon="4.03506">
        <ele>84.65</ele>
        <time>2018-07-15T07:20:19.000Z</time>
      </trkpt>
      <trkpt lat="50.61316" lon="4.03478">
        <ele>84.51</ele>
        <time>2018-07-15T07:20:29.000Z</time>
      </trkpt>
      <trkpt lat="50.61314" lon="4.03473">
        <ele>85.93</ele>
        <time>2018-07-15T07:20:39.000Z</time>
      </trkpt>
      <trkpt lat="50.61309" lon="4.03447">
        <ele>87.11</ele>
        <time>2018-07-15T07:20:49.000Z</time>
      </trkpt>
      <trkpt lat="50.613" lon="4.03424">
        <ele>88.49</ele>
        <time>2018-07-15T07:20:59.000Z</time>
      </trkpt>
      <trkpt lat="50.61296" lon="4.03411">
        <ele>92.65</ele>
        <time>2018-07-15T07:21:09.000Z</time>
      </trkpt>
      <trkpt lat="50.61288" lon="4.0339">
        <ele>88.76</ele>
        <time>2018-07-15T07:21:19.000Z</time>
      </trkpt>
      <trkpt lat="50.61281" lon="4.03365">
        <ele>83.96</ele>
        <time>2018-07-15T07:21:29.000Z</time>
      </trkpt>
      <trkpt lat="50.61277" lon="4.03348">
        <ele>81.83</ele>
        <time>2018-07-15T07:21:39.000Z</time>
      </trkpt>
      <trkpt lat="50.6127" lon="4.0333">
        <ele>84.94</ele>
        <time>2018-07-15T07:21:49.000Z</time>
      </trkpt>
      <trkpt lat="50.6126" lon="4.0331">
        <ele>86.56</ele>
        <time>2018-07-15T07:21:59.000Z</time>
      </trkpt>
      <trkpt lat="50.61257" lon="4.03296">
        <ele>87.69</ele>
        <time>2018-07-15T07:22:09.000Z</time>
      </trkpt>
      <trkpt lat="50.61251" lon="4.03277">
        <ele>87.53</ele>
        <time>2018-07-15T07:22:19.000Z</time>
      </trkpt>
      <trkpt lat="50.61244" lon="4.0326">
        <ele>85.43</ele>
        <time>2018-07-15T07:22:29.000Z</time>
      </trkpt>
      <trkpt lat="50.61239" lon="4.03235">
        <ele>88.63</ele>
        <time>2018-07-15T07:22:39.000Z</time>
      </trkpt>
      <trkpt lat="50.61242" lon="4.03224">
        <ele>84.72</ele>
        <time>2018-07-15T07:22:49.000Z</time>
      </trkpt>
      <trkpt lat="50.61244" lon="4.03196">
        <ele>86.68</ele>
        <time>2018-07-15T07:22:59.000Z</time>
      </trkpt>
      <trkpt lat="50.61247" lon="4.03164">
        <ele>85.93</ele>
        <time>2018-07-15T07:23:09.000Z</time>
      </trkpt>
      <trkpt lat="50.61249" lon="4.03152">
        <ele>88.82</ele>
        <time>2018-07-15T07:23:19.000Z</time>
      </trkpt>
      <trkpt lat="50.61251" lon="4.03129">
        <ele>89.49</ele>
        <time>2018-07-15T07:23:29.000Z</time>
      </trkpt>
      <trkpt lat="50.61257" lon="4.03102">
        <ele>88.51</ele>
        <time>2018-07-15T07:23:39.000Z</time>
      </trkpt>
      <trkpt lat="50.61261" lon="4.03095">
        <ele>87.69</ele>
        <time>2018-07-15T07:23:49.000Z</time>
      </trkpt>
      <trkpt lat="50.61265" lon="4.03065">
        <ele>87.62</ele>
        <time>2018-07-15T07:23:59.000Z</time>
      </trkpt>
      <trkpt lat="50.61266" lon="4.03043">
        <ele>86.78</ele>
        <time>2018-07-15T07:24:09.000Z</time>
      </trkpt>
      <trkpt lat="50.6127" lon="4.03026">
        <ele>84.64</ele>
        <time>2018-07-15T07:24:19.000Z</time>
      </trkpt>
      <trkpt lat="50.6127" lon="4.03012">
        <ele>83.7</ele>
        <time>2018-07-15T07:24:29.000Z</time>
      </trkpt>
      <trkpt lat="50.61274" lon="4.02994">
        <ele>83.89</ele>
        <time>2018-07-15T07:24:39.000Z</time>
      </trkpt>
      <trkpt lat="50.61279" lon="4.02972">
        <ele>84.75</ele>
        <time>2018-07-15T07:24:49.000Z</time>
      </trkpt>
      <trkpt lat="50.61283" lon="4.02951">
        <ele>83.4</ele>
        <time>2018-07-15T07:24:59.000Z</time>
      </trkpt>
      <trkpt lat="50.61285" lon="4.02932">
        <ele>81.74</ele>
        <time>2018-07-15T07:25:09.000Z</time>
      </trkpt>
      <trkpt lat="50.6129" lon="4.02904">
        <ele>84.78</ele>
        <time>2018-07-15T07:25:19.000Z</time>
      </trkpt>
      <trkpt lat="50.6129" lon="4.02885">
        <ele>81.95</ele>
        <time>2018-07-15T07:25:29.000Z</time>
      </trkpt>
      <trkpt lat="50.61295" lon="4.02863">
        <ele>82.7</ele>
        <time>2018-07-15T07:25:39.000Z</time>
      </trkpt>
      <trkpt lat="50.61299" lon="4.02851">
        <ele>85.63</ele>
        <time>2018-07-15T07:25:49.000Z</time>
      </trkpt>
      <trkpt lat="50.61305" lon="4.02828">
        <ele>83.7</ele>
        <time>2018-07-15T07:25:59.000Z</time>
      </trkpt>
      <trkpt lat="50.61314" lon="4.02811">
        <ele>87.4</ele>
        <time>2018-07-15T07:26:09.000Z</time>
      </trkpt>
      <trkpt lat="50.61318" lon="4.02794">
        <ele>86.72</ele>
        <time>2018-07-15T07:26:19.000Z</time>
      </trkpt>
      <trkpt lat="50.61323" lon="4.02776">
        <ele>89.15</ele>
        <time>2018-07-15T07:26:29.000Z</time>
      </trkpt>
      <trkpt lat="50.61324" lon="4.02775">
        <ele>87.89</ele>
        <time>2018-07-15T07:26:42.000Z</time>
      </trkpt>
      <trkpt lat="50.61327" lon="4.02764">
        <ele>86.95</ele>
        <time>2018-07-15T07:26:52.000Z</time>
      </trkpt>
      <trkpt lat="50.61327" lon="4.02767">
        <ele>85.72</ele>
        <time>2018-07-15T07:27:02.000Z</time>
      </trkpt>
      <trkpt lat="50.61328" lon="4.02766">
        <ele>86.7</ele>
        <time>2018-07-15T07:27:13.000Z</time>
      </trkpt>
      <trkpt lat="50.61327" lon="4.02767">
        <ele>84.9</ele>
        <time>2018-07-15T07:27:23.000Z</time>
      </trkpt>
      <trkpt lat="50.61326" lon="4.02768">
        <ele>88.45</ele>
        <time>2018-07-15T07:27:54.000Z</time>
      </trkpt>
      <trkpt lat="50.61326" lon="4.02771">
        <ele>89.14</ele>
        <time>2018-07-15T07:28:50.000Z</time>
      </trkpt>
      <trkpt lat="50.61327" lon="4.0277">
        <ele>89.75</ele>
        <time>2018-07-15T07:29:00.000Z</time>
      </trkpt>
      <trkpt lat="50.61327" lon="4.02768">
        <ele>89.64</ele>
        <time>2018-07-15T07:29:10.000Z</time>
      </trkpt>
      <trkpt lat="50.61329" lon="4.02764">
        <ele>89.75</ele>
        <time>2018-07-15T07:29:20.000Z</time>
      </trkpt>
      <trkpt lat="50.61331" lon="4.02745">
        <ele>86.37</ele>
        <time>2018-07-15T07:29:30.000Z</time>
      </trkpt>
      <trkpt lat="50.61339" lon="4.02731">
        <ele>90.64</ele>
        <time>2018-07-15T07:29:40.000Z</time>
      </trkpt>
      <trkpt lat="50.61342" lon="4.02714">
        <ele>91.71</ele>
        <time>2018-07-15T07:29:50.000Z</time>
      </trkpt>
      <trkpt lat="50.61339" lon="4.02695">
        <ele>90.7</ele>
        <time>2018-07-15T07:30:00.000Z</time>
      </trkpt>
      <trkpt lat="50.61332" lon="4.02676">
        <ele>97.2</ele>
        <time>2018-07-15T07:30:10.000Z</time>
      </trkpt>
      <trkpt lat="50.61321" lon="4.0266">
        <ele>94.69</ele>
        <time>2018-07-15T07:30:20.000Z</time>
      </trkpt>
      <trkpt lat="50.61316" lon="4.02645">
        <ele>91.72</ele>
        <time>2018-07-15T07:30:30.000Z</time>
      </trkpt>
      <trkpt lat="50.61309" lon="4.02625">
        <ele>93.7</ele>
        <time>2018-07-15T07:30:40.000Z</time>
      </trkpt>
      <trkpt lat="50.61304" lon="4.02611">
        <ele>92.71</ele>
        <time>2018-07-15T07:30:50.000Z</time>
      </trkpt>
      <trkpt lat="50.61297" lon="4.02593">
        <ele>90.77</ele>
        <time>2018-07-15T07:31:00.000Z</time>
      </trkpt>
      <trkpt lat="50.61289" lon="4.02577">
        <ele>88.07</ele>
        <time>2018-07-15T07:31:10.000Z</time>
      </trkpt>
      <trkpt lat="50.61284" lon="4.02552">
        <ele>88.93</ele>
        <time>2018-07-15T07:31:20.000Z</time>
      </trkpt>
      <trkpt lat="50.6128" lon="4.02537">
        <ele>92.39</ele>
        <time>2018-07-15T07:31:30.000Z</time>
      </trkpt>
      <trkpt lat="50.6128" lon="4.02514">
        <ele>91.51</ele>
        <time>2018-07-15T07:31:40.000Z</time>
      </trkpt>
      <trkpt lat="50.61281" lon="4.02496">
        <ele>90.77</ele>
        <time>2018-07-15T07:31:50.000Z</time>
      </trkpt>
      <trkpt lat="50.61281" lon="4.02472">
        <ele>95.45</ele>
        <time>2018-07-15T07:32:00.000Z</time>
      </trkpt>
      <trkpt lat="50.6128" lon="4.02459">
        <ele>90.54</ele>
        <time>2018-07-15T07:32:10.000Z</time>
      </trkpt>
      <trkpt lat="50.61279" lon="4.0243">
        <ele>92.64</ele>
        <time>2018-07-15T07:32:20.000Z</time>
      </trkpt>
      <trkpt lat="50.61281" lon="4.02413">
        <ele>93.7</ele>
        <time>2018-07-15T07:32:30.000Z</time>
      </trkpt>
      <trkpt lat="50.61281" lon="4.02391">
        <ele>94.45</ele>
        <time>2018-07-15T07:32:40.000Z</time>
      </trkpt>
      <trkpt lat="50.61282" lon="4.02369">
        <ele>92.71</ele>
        <time>2018-07-15T07:32:50.000Z</time>
      </trkpt>
      <trkpt lat="50.61282" lon="4.0234">
        <ele>96.7</ele>
        <time>2018-07-15T07:33:00.000Z</time>
      </trkpt>
      <trkpt lat="50.61283" lon="4.02325">
        <ele>95.71</ele>
        <time>2018-07-15T07:33:10.000Z</time>
      </trkpt>
      <trkpt lat="50.61283" lon="4.023">
        <ele>91.54</ele>
        <time>2018-07-15T07:33:20.000Z</time>
      </trkpt>
      <trkpt lat="50.61283" lon="4.02277">
        <ele>93.4</ele>
        <time>2018-07-15T07:33:30.000Z</time>
      </trkpt>
      <trkpt lat="50.61285" lon="4.02262">
        <ele>92.71</ele>
        <time>2018-07-15T07:33:40.000Z</time>
      </trkpt>
      <trkpt lat="50.61287" lon="4.02238">
        <ele>95.51</ele>
        <time>2018-07-15T07:33:50.000Z</time>
      </trkpt>
      <trkpt lat="50.61285" lon="4.02211">
        <ele>94.71</ele>
        <time>2018-07-15T07:34:00.000Z</time>
      </trkpt>
      <trkpt lat="50.61283" lon="4.02192">
        <ele>96.51</ele>
        <time>2018-07-15T07:34:10.000Z</time>
      </trkpt>
      <trkpt lat="50.61282" lon="4.0218">
        <ele>96.72</ele>
        <time>2018-07-15T07:34:20.000Z</time>
      </trkpt>
      <trkpt lat="50.61275" lon="4.02157">
        <ele>98.71</ele>
        <time>2018-07-15T07:34:30.000Z</time>
      </trkpt>
      <trkpt lat="50.61271" lon="4.02128">
        <ele>96.65</ele>
        <time>2018-07-15T07:34:40.000Z</time>
      </trkpt>
      <trkpt lat="50.61267" lon="4.02113">
        <ele>100.42</ele>
        <time>2018-07-15T07:34:50.000Z</time>
      </trkpt>
      <trkpt lat="50.61263" lon="4.02095">
        <ele>97.71</ele>
        <time>2018-07-15T07:35:00.000Z</time>
      </trkpt>
      <trkpt lat="50.61264" lon="4.02069">
        <ele>96.51</ele>
        <time>2018-07-15T07:35:10.000Z</time>
      </trkpt>
      <trkpt lat="50.61262" lon="4.02053">
        <ele>95.72</ele>
        <time>2018-07-15T07:35:20.000Z</time>
      </trkpt>
      <trkpt lat="50.61259" lon="4.02033">
        <ele>94.77</ele>
        <time>2018-07-15T07:35:30.000Z</time>
      </trkpt>
      <trkpt lat="50.61256" lon="4.02002">
        <ele>96.68</ele>
        <time>2018-07-15T07:35:40.000Z</time>
      </trkpt>
      <trkpt lat="50.61255" lon="4.01981">
        <ele>97.69</ele>
        <time>2018-07-15T07:35:50.000Z</time>
      </trkpt>
      <trkpt lat="50.61253" lon="4.01968">
        <ele>96.77</ele>
        <time>2018-07-15T07:36:00.000Z</time>
      </trkpt>
      <trkpt lat="50.61251" lon="4.01943">
        <ele>101.33</ele>
        <time>2018-07-15T07:36:10.000Z</time>
      </trkpt>
      <trkpt lat="50.61254" lon="4.01915">
        <ele>101.83</ele>
        <time>2018-07-15T07:36:20.000Z</time>
      </trkpt>
      <trkpt lat="50.61259" lon="4.01902">
        <ele>102.65</ele>
        <time>2018-07-15T07:36:30.000Z</time>
      </trkpt>
      <trkpt lat="50.61258" lon="4.01879">
        <ele>101.71</ele>
        <time>2018-07-15T07:36:40.000Z</time>
      </trkpt>
      <trkpt lat="50.61259" lon="4.01853">
        <ele>101.72</ele>
        <time>2018-07-15T07:36:50.000Z</time>
      </trkpt>
      <trkpt lat="50.61262" lon="4.0184">
        <ele>104.37</ele>
        <time>2018-07-15T07:37:00.000Z</time>
      </trkpt>
      <trkpt lat="50.61262" lon="4.01815">
        <ele>100.03</ele>
        <time>2018-07-15T07:37:10.000Z</time>
      </trkpt>
      <trkpt lat="50.61263" lon="4.01785">
        <ele>103.71</ele>
        <time>2018-07-15T07:37:20.000Z</time>
      </trkpt>
      <trkpt lat="50.61265" lon="4.01777">
        <ele>100.66</ele>
        <time>2018-07-15T07:37:30.000Z</time>
      </trkpt>
      <trkpt lat="50.61267" lon="4.01754">
        <ele>97.06</ele>
        <time>2018-07-15T07:37:40.000Z</time>
      </trkpt>
      <trkpt lat="50.61266" lon="4.01724">
        <ele>98.51</ele>
        <time>2018-07-15T07:37:50.000Z</time>
      </trkpt>
      <trkpt lat="50.61266" lon="4.01709">
        <ele>97.79</ele>
        <time>2018-07-15T07:38:00.000Z</time>
      </trkpt>
      <trkpt lat="50.61261" lon="4.01694">
        <ele>99.59</ele>
        <time>2018-07-15T07:38:10.000Z</time>
      </trkpt>
      <trkpt lat="50.61258" lon="4.01668">
        <ele>97.65</ele>
        <time>2018-07-15T07:38:20.000Z</time>
      </trkpt>
      <trkpt lat="50.61254" lon="4.01641">
        <ele>95.65</ele>
        <time>2018-07-15T07:38:30.000Z</time>
      </trkpt>
      <trkpt lat="50.61252" lon="4.01629">
        <ele>96.78</ele>
        <time>2018-07-15T07:38:40.000Z</time>
      </trkpt>
      <trkpt lat="50.61248" lon="4.01605">
        <ele>102.47</ele>
        <time>2018-07-15T07:38:50.000Z</time>
      </trkpt>
      <trkpt lat="50.61245" lon="4.01581">
        <ele>100.78</ele>
        <time>2018-07-15T07:39:00.000Z</time>
      </trkpt>
      <trkpt lat="50.61241" lon="4.01564">
        <ele>98.5</ele>
        <time>2018-07-15T07:39:10.000Z</time>
      </trkpt>
      <trkpt lat="50.61236" lon="4.01543">
        <ele>98.01</ele>
        <time>2018-07-15T07:39:20.000Z</time>
      </trkpt>
      <trkpt lat="50.61232" lon="4.01521">
        <ele>100.16</ele>
        <time>2018-07-15T07:39:30.000Z</time>
      </trkpt>
      <trkpt lat="50.61231" lon="4.01507">
        <ele>98.07</ele>
        <time>2018-07-15T07:39:40.000Z</time>
      </trkpt>
      <trkpt lat="50.61227" lon="4.0148">
        <ele>98.71</ele>
        <time>2018-07-15T07:39:50.000Z</time>
      </trkpt>
      <trkpt lat="50.61224" lon="4.01468">
        <ele>99.67</ele>
        <time>2018-07-15T07:40:00.000Z</time>
      </trkpt>
      <trkpt lat="50.61223" lon="4.01444">
        <ele>99.71</ele>
        <time>2018-07-15T07:40:10.000Z</time>
      </trkpt>
      <trkpt lat="50.61221" lon="4.01426">
        <ele>101.43</ele>
        <time>2018-07-15T07:40:20.000Z</time>
      </trkpt>
      <trkpt lat="50.6122" lon="4.01404">
        <ele>100.72</ele>
        <time>2018-07-15T07:40:30.000Z</time>
      </trkpt>
      <trkpt lat="50.6122" lon="4.01381">
        <ele>102.78</ele>
        <time>2018-07-15T07:40:40.000Z</time>
      </trkpt>
      <trkpt lat="50.6122" lon="4.01361">
        <ele>99.61</ele>
        <time>2018-07-15T07:40:50.000Z</time>
      </trkpt>
      <trkpt lat="50.61222" lon="4.01342">
        <ele>99.52</ele>
        <time>2018-07-15T07:41:00.000Z</time>
      </trkpt>
      <trkpt lat="50.61226" lon="4.01328">
        <ele>101.71</ele>
        <time>2018-07-15T07:41:10.000Z</time>
      </trkpt>
      <trkpt lat="50.6123" lon="4.01302">
        <ele>96.02</ele>
        <time>2018-07-15T07:41:20.000Z</time>
      </trkpt>
      <trkpt lat="50.61232" lon="4.01285">
        <ele>92.03</ele>
        <time>2018-07-15T07:41:30.000Z</time>
      </trkpt>
      <trkpt lat="50.61234" lon="4.0127">
        <ele>93.4</ele>
        <time>2018-07-15T07:41:40.000Z</time>
      </trkpt>
      <trkpt lat="50.61235" lon="4.01253">
        <ele>91.72</ele>
        <time>2018-07-15T07:41:50.000Z</time>
      </trkpt>
      <trkpt lat="50.61234" lon="4.01223">
        <ele>94.88</ele>
        <time>2018-07-15T07:42:00.000Z</time>
      </trkpt>
      <trkpt lat="50.61231" lon="4.01208">
        <ele>92.97</ele>
        <time>2018-07-15T07:42:10.000Z</time>
      </trkpt>
      <trkpt lat="50.61231" lon="4.01183">
        <ele>91.96</ele>
        <time>2018-07-15T07:42:20.000Z</time>
      </trkpt>
      <trkpt lat="50.61227" lon="4.01168">
        <ele>94.45</ele>
        <time>2018-07-15T07:42:30.000Z</time>
      </trkpt>
      <trkpt lat="50.61223" lon="4.01142">
        <ele>93.86</ele>
        <time>2018-07-15T07:42:40.000Z</time>
      </trkpt>
      <trkpt lat="50.61222" lon="4.01126">
        <ele>94.65</ele>
        <time>2018-07-15T07:42:50.000Z</time>
      </trkpt>
      <trkpt lat="50.61221" lon="4.01107">
        <ele>96.91</ele>
        <time>2018-07-15T07:43:00.000Z</time>
      </trkpt>
      <trkpt lat="50.61219" lon="4.0108">
        <ele>92.75</ele>
        <time>2018-07-15T07:43:10.000Z</time>
      </trkpt>
      <trkpt lat="50.61217" lon="4.01065">
        <ele>91.91</ele>
        <time>2018-07-15T07:43:20.000Z</time>
      </trkpt>
      <trkpt lat="50.61217" lon="4.01042">
        <ele>91.76</ele>
        <time>2018-07-15T07:43:30.000Z</time>
      </trkpt>
      <trkpt lat="50.61214" lon="4.01019">
        <ele>88.98</ele>
        <time>2018-07-15T07:43:40.000Z</time>
      </trkpt>
      <trkpt lat="50.61211" lon="4.00993">
        <ele>89.21</ele>
        <time>2018-07-15T07:43:50.000Z</time>
      </trkpt>
      <trkpt lat="50.6121" lon="4.0098">
        <ele>89.47</ele>
        <time>2018-07-15T07:44:00.000Z</time>
      </trkpt>
      <trkpt lat="50.61208" lon="4.00957">
        <ele>90.97</ele>
        <time>2018-07-15T07:44:10.000Z</time>
      </trkpt>
      <trkpt lat="50.61207" lon="4.00932">
        <ele>88.68</ele>
        <time>2018-07-15T07:44:20.000Z</time>
      </trkpt>
      <trkpt lat="50.61204" lon="4.00916">
        <ele>90.7</ele>
        <time>2018-07-15T07:44:30.000Z</time>
      </trkpt>
      <trkpt lat="50.61202" lon="4.00894">
        <ele>88.97</ele>
        <time>2018-07-15T07:44:40.000Z</time>
      </trkpt>
      <trkpt lat="50.612" lon="4.00867">
        <ele>86.74</ele>
        <time>2018-07-15T07:44:50.000Z</time>
      </trkpt>
      <trkpt lat="50.61202" lon="4.00856">
        <ele>90.47</ele>
        <time>2018-07-15T07:45:00.000Z</time>
      </trkpt>
      <trkpt lat="50.61204" lon="4.00831">
        <ele>99.48</ele>
        <time>2018-07-15T07:45:10.000Z</time>
      </trkpt>
      <trkpt lat="50.61208" lon="4.00813">
        <ele>97.79</ele>
        <time>2018-07-15T07:45:20.000Z</time>
      </trkpt>
      <trkpt lat="50.61218" lon="4.00794">
        <ele>93.96</ele>
        <time>2018-07-15T07:45:30.000Z</time>
      </trkpt>
      <trkpt lat="50.61225" lon="4.00782">
        <ele>93.47</ele>
        <time>2018-07-15T07:45:40.000Z</time>
      </trkpt>
      <trkpt lat="50.61235" lon="4.00766">
        <ele>92.77</ele>
        <time>2018-07-15T07:45:50.000Z</time>
      </trkpt>
      <trkpt lat="50.61241" lon="4.00745">
        <ele>94.53</ele>
        <time>2018-07-15T07:46:00.000Z</time>
      </trkpt>
      <trkpt lat="50.61249" lon="4.00724">
        <ele>93.77</ele>
        <time>2018-07-15T07:46:10.000Z</time>
      </trkpt>
      <trkpt lat="50.61245" lon="4.00705">
        <ele>92.77</ele>
        <time>2018-07-15T07:46:20.000Z</time>
      </trkpt>
      <trkpt lat="50.61243" lon="4.00679">
        <ele>98.71</ele>
        <time>2018-07-15T07:46:30.000Z</time>
      </trkpt>
      <trkpt lat="50.61242" lon="4.00671">
        <ele>94.99</ele>
        <time>2018-07-15T07:46:40.000Z</time>
      </trkpt>
      <trkpt lat="50.61238" lon="4.00643">
        <ele>96.22</ele>
        <time>2018-07-15T07:46:50.000Z</time>
      </trkpt>
      <trkpt lat="50.61234" lon="4.00623">
        <ele>97.37</ele>
        <time>2018-07-15T07:47:00.000Z</time>
      </trkpt>
      <trkpt lat="50.61228" lon="4.00604">
        <ele>95.54</ele>
        <time>2018-07-15T07:47:10.000Z</time>
      </trkpt>
      <trkpt lat="50.6122" lon="4.00587">
        <ele>93.97</ele>
        <time>2018-07-15T07:47:20.000Z</time>
      </trkpt>
      <trkpt lat="50.61213" lon="4.00564">
        <ele>96.73</ele>
        <time>2018-07-15T07:47:30.000Z</time>
      </trkpt>
      <trkpt lat="50.61206" lon="4.0055">
        <ele>96.93</ele>
        <time>2018-07-15T07:47:40.000Z</time>
      </trkpt>
      <trkpt lat="50.61199" lon="4.0053">
        <ele>99.29</ele>
        <time>2018-07-15T07:47:50.000Z</time>
      </trkpt>
      <trkpt lat="50.61191" lon="4.00513">
        <ele>98.72</ele>
        <time>2018-07-15T07:48:00.000Z</time>
      </trkpt>
      <trkpt lat="50.61188" lon="4.00489">
        <ele>98.66</ele>
        <time>2018-07-15T07:48:10.000Z</time>
      </trkpt>
      <trkpt lat="50.61184" lon="4.0047">
        <ele>98.73</ele>
        <time>2018-07-15T07:48:20.000Z</time>
      </trkpt>
      <trkpt lat="50.61183" lon="4.00454">
        <ele>97.73</ele>
        <time>2018-07-15T07:48:30.000Z</time>
      </trkpt>
      <trkpt lat="50.61178" lon="4.00436">
        <ele>95.96</ele>
        <time>2018-07-15T07:48:40.000Z</time>
      </trkpt>
      <trkpt lat="50.61175" lon="4.0041">
        <ele>96.66</ele>
        <time>2018-07-15T07:48:50.000Z</time>
      </trkpt>
      <trkpt lat="50.61172" lon="4.00388">
        <ele>94.23</ele>
        <time>2018-07-15T07:49:00.000Z</time>
      </trkpt>
      <trkpt lat="50.6117" lon="4.0037">
        <ele>91.53</ele>
        <time>2018-07-15T07:49:10.000Z</time>
      </trkpt>
      <trkpt lat="50.61164" lon="4.00352">
        <ele>93.73</ele>
        <time>2018-07-15T07:49:20.000Z</time>
      </trkpt>
      <trkpt lat="50.61158" lon="4.00337">
        <ele>93.76</ele>
        <time>2018-07-15T07:49:30.000Z</time>
      </trkpt>
      <trkpt lat="50.61155" lon="4.00335">
        <ele>92.97</ele>
        <time>2018-07-15T07:49:40.000Z</time>
      </trkpt>
      <trkpt lat="50.61155" lon="4.00333">
        <ele>92.73</ele>
        <time>2018-07-15T07:49:50.000Z</time>
      </trkpt>
      <trkpt lat="50.61156" lon="4.00335">
        <ele>92.91</ele>
        <time>2018-07-15T07:51:05.000Z</time>
      </trkpt>
      <trkpt lat="50.61157" lon="4.00334">
        <ele>93.73</ele>
        <time>2018-07-15T07:51:15.000Z</time>
      </trkpt>
      <trkpt lat="50.61159" lon="4.00334">
        <ele>95.66</ele>
        <time>2018-07-15T07:52:29.000Z</time>
      </trkpt>
      <trkpt lat="50.61158" lon="4.00333">
        <ele>95.04</ele>
        <time>2018-07-15T07:54:44.000Z</time>
      </trkpt>
      <trkpt lat="50.61153" lon="4.00322">
        <ele>94.8</ele>
        <time>2018-07-15T07:54:54.000Z</time>
      </trkpt>
      <trkpt lat="50.6115" lon="4.00303">
        <ele>93.71</ele>
        <time>2018-07-15T07:55:04.000Z</time>
      </trkpt>
      <trkpt lat="50.61148" lon="4.00292">
        <ele>92.73</ele>
        <time>2018-07-15T07:55:14.000Z</time>
      </trkpt>
      <trkpt lat="50.61142" lon="4.00273">
        <ele>88.28</ele>
        <time>2018-07-15T07:55:24.000Z</time>
      </trkpt>
      <trkpt lat="50.61138" lon="4.00255">
        <ele>88.68</ele>
        <time>2018-07-15T07:55:34.000Z</time>
      </trkpt>
      <trkpt lat="50.61134" lon="4.00233">
        <ele>88.65</ele>
        <time>2018-07-15T07:55:44.000Z</time>
      </trkpt>
      <trkpt lat="50.6113" lon="4.00218">
        <ele>88.46</ele>
        <time>2018-07-15T07:55:54.000Z</time>
      </trkpt>
      <trkpt lat="50.61127" lon="4.00203">
        <ele>88.04</ele>
        <time>2018-07-15T07:56:04.000Z</time>
      </trkpt>
      <trkpt lat="50.61121" lon="4.00183">
        <ele>86.73</ele>
        <time>2018-07-15T07:56:14.000Z</time>
      </trkpt>
      <trkpt lat="50.61116" lon="4.00165">
        <ele>87.91</ele>
        <time>2018-07-15T07:56:24.000Z</time>
      </trkpt>
      <trkpt lat="50.61114" lon="4.00146">
        <ele>90.71</ele>
        <time>2018-07-15T07:56:34.000Z</time>
      </trkpt>
      <trkpt lat="50.6111" lon="4.0013">
        <ele>96.72</ele>
        <time>2018-07-15T07:56:44.000Z</time>
      </trkpt>
      <trkpt lat="50.61109" lon="4.00111">
        <ele>94.48</ele>
        <time>2018-07-15T07:56:54.000Z</time>
      </trkpt>
      <trkpt lat="50.61107" lon="4.00088">
        <ele>93.69</ele>
        <time>2018-07-15T07:57:04.000Z</time>
      </trkpt>
      <trkpt lat="50.61103" lon="4.00069">
        <ele>89.84</ele>
        <time>2018-07-15T07:57:14.000Z</time>
      </trkpt>
      <trkpt lat="50.611" lon="4.00052">
        <ele>88.73</ele>
        <time>2018-07-15T07:57:24.000Z</time>
      </trkpt>
      <trkpt lat="50.61101" lon="4.0004">
        <ele>88.67</ele>
        <time>2018-07-15T07:57:34.000Z</time>
      </trkpt>
      <trkpt lat="50.61099" lon="4.00017">
        <ele>90.73</ele>
        <time>2018-07-15T07:57:44.000Z</time>
      </trkpt>
      <trkpt lat="50.61095" lon="3.99997">
        <ele>90.75</ele>
        <time>2018-07-15T07:57:54.000Z</time>
      </trkpt>
      <trkpt lat="50.61094" lon="3.99977">
        <ele>89.73</ele>
        <time>2018-07-15T07:58:04.000Z</time>
      </trkpt>
      <trkpt lat="50.61091" lon="3.99963">
        <ele>87.52</ele>
        <time>2018-07-15T07:58:14.000Z</time>
      </trkpt>
      <trkpt lat="50.61087" lon="3.99944">
        <ele>91.77</ele>
        <time>2018-07-15T07:58:24.000Z</time>
      </trkpt>
      <trkpt lat="50.61082" lon="3.99919">
        <ele>89.74</ele>
        <time>2018-07-15T07:58:34.000Z</time>
      </trkpt>
      <trkpt lat="50.61079" lon="3.99908">
        <ele>91.48</ele>
        <time>2018-07-15T07:58:44.000Z</time>
      </trkpt>
      <trkpt lat="50.61074" lon="3.99892">
        <ele>94.79</ele>
        <time>2018-07-15T07:58:54.000Z</time>
      </trkpt>
      <trkpt lat="50.6107" lon="3.99876">
        <ele>91.75</ele>
        <time>2018-07-15T07:59:04.000Z</time>
      </trkpt>
      <trkpt lat="50.61066" lon="3.99857">
        <ele>91.68</ele>
        <time>2018-07-15T07:59:14.000Z</time>
      </trkpt>
      <trkpt lat="50.61062" lon="3.99835">
        <ele>92.73</ele>
        <time>2018-07-15T07:59:24.000Z</time>
      </trkpt>
      <trkpt lat="50.61056" lon="3.99814">
        <ele>94.73</ele>
        <time>2018-07-15T07:59:34.000Z</time>
      </trkpt>
      <trkpt lat="50.61053" lon="3.99798">
        <ele>95.67</ele>
        <time>2018-07-15T07:59:44.000Z</time>
      </trkpt>
      <trkpt lat="50.61046" lon="3.99777">
        <ele>99.42</ele>
        <time>2018-07-15T07:59:54.000Z</time>
      </trkpt>
      <trkpt lat="50.61044" lon="3.99759">
        <ele>98.6</ele>
        <time>2018-07-15T08:00:04.000Z</time>
      </trkpt>
      <trkpt lat="50.61042" lon="3.99734">
        <ele>97.93</ele>
        <time>2018-07-15T08:00:14.000Z</time>
      </trkpt>
      <trkpt lat="50.61038" lon="3.99718">
        <ele>97.98</ele>
        <time>2018-07-15T08:00:24.000Z</time>
      </trkpt>
      <trkpt lat="50.61038" lon="3.9969">
        <ele>95.74</ele>
        <time>2018-07-15T08:00:34.000Z</time>
      </trkpt>
      <trkpt lat="50.61038" lon="3.99676">
        <ele>97.73</ele>
        <time>2018-07-15T08:00:44.000Z</time>
      </trkpt>
      <trkpt lat="50.61038" lon="3.9965">
        <ele>97.72</ele>
        <time>2018-07-15T08:00:54.000Z</time>
      </trkpt>
      <trkpt lat="50.61037" lon="3.99639">
        <ele>98.73</ele>
        <time>2018-07-15T08:01:04.000Z</time>
      </trkpt>
      <trkpt lat="50.61038" lon="3.99614">
        <ele>97.69</ele>
        <time>2018-07-15T08:01:14.000Z</time>
      </trkpt>
      <trkpt lat="50.61037" lon="3.99601">
        <ele>98.98</ele>
        <time>2018-07-15T08:01:24.000Z</time>
      </trkpt>
      <trkpt lat="50.61038" lon="3.99571">
        <ele>96.72</ele>
        <time>2018-07-15T08:01:34.000Z</time>
      </trkpt>
      <trkpt lat="50.61037" lon="3.99557">
        <ele>94.55</ele>
        <time>2018-07-15T08:01:44.000Z</time>
      </trkpt>
      <trkpt lat="50.61037" lon="3.99527">
        <ele>93.97</ele>
        <time>2018-07-15T08:01:54.000Z</time>
      </trkpt>
      <trkpt lat="50.61036" lon="3.99513">
        <ele>91.98</ele>
        <time>2018-07-15T08:02:04.000Z</time>
      </trkpt>
      <trkpt lat="50.61035" lon="3.99491">
        <ele>93.92</ele>
        <time>2018-07-15T08:02:14.000Z</time>
      </trkpt>
      <trkpt lat="50.61037" lon="3.99471">
        <ele>91.99</ele>
        <time>2018-07-15T08:02:24.000Z</time>
      </trkpt>
      <trkpt lat="50.61036" lon="3.99456">
        <ele>94.67</ele>
        <time>2018-07-15T08:02:34.000Z</time>
      </trkpt>
      <trkpt lat="50.61038" lon="3.99443">
        <ele>92.68</ele>
        <time>2018-07-15T08:02:44.000Z</time>
      </trkpt>
      <trkpt lat="50.6104" lon="3.9942">
        <ele>93.67</ele>
        <time>2018-07-15T08:02:54.000Z</time>
      </trkpt>
      <trkpt lat="50.61041" lon="3.99398">
        <ele>92.72</ele>
        <time>2018-07-15T08:03:04.000Z</time>
      </trkpt>
      <trkpt lat="50.61044" lon="3.99372">
        <ele>93.74</ele>
        <time>2018-07-15T08:03:14.000Z</time>
      </trkpt>
      <trkpt lat="50.61044" lon="3.99343">
        <ele>91.67</ele>
        <time>2018-07-15T08:03:24.000Z</time>
      </trkpt>
      <trkpt lat="50.61043" lon="3.99329">
        <ele>93.49</ele>
        <time>2018-07-15T08:03:34.000Z</time>
      </trkpt>
      <trkpt lat="50.61042" lon="3.99306">
        <ele>93.74</ele>
        <time>2018-07-15T08:03:44.000Z</time>
      </trkpt>
      <trkpt lat="50.61043" lon="3.99289">
        <ele>95.49</ele>
        <time>2018-07-15T08:03:54.000Z</time>
      </trkpt>
      <trkpt lat="50.61045" lon="3.99265">
        <ele>91.99</ele>
        <time>2018-07-15T08:04:04.000Z</time>
      </trkpt>
      <trkpt lat="50.61046" lon="3.99231">
        <ele>91.73</ele>
        <time>2018-07-15T08:04:14.000Z</time>
      </trkpt>
      <trkpt lat="50.61046" lon="3.99219">
        <ele>90.68</ele>
        <time>2018-07-15T08:04:24.000Z</time>
      </trkpt>
      <trkpt lat="50.61045" lon="3.992">
        <ele>90.8</ele>
        <time>2018-07-15T08:04:34.000Z</time>
      </trkpt>
      <trkpt lat="50.61045" lon="3.99172">
        <ele>93.51</ele>
        <time>2018-07-15T08:04:44.000Z</time>
      </trkpt>
      <trkpt lat="50.61045" lon="3.99157">
        <ele>95.67</ele>
        <time>2018-07-15T08:04:54.000Z</time>
      </trkpt>
      <trkpt lat="50.61047" lon="3.99128">
        <ele>94.55</ele>
        <time>2018-07-15T08:05:04.000Z</time>
      </trkpt>
      <trkpt lat="50.61046" lon="3.99114">
        <ele>97.66</ele>
        <time>2018-07-15T08:05:14.000Z</time>
      </trkpt>
      <trkpt lat="50.61046" lon="3.99091">
        <ele>94.99</ele>
        <time>2018-07-15T08:05:24.000Z</time>
      </trkpt>
      <trkpt lat="50.61047" lon="3.9907">
        <ele>92.68</ele>
        <time>2018-07-15T08:05:34.000Z</time>
      </trkpt>
      <trkpt lat="50.61045" lon="3.99054">
        <ele>95.68</ele>
        <time>2018-07-15T08:05:44.000Z</time>
      </trkpt>
      <trkpt lat="50.61048" lon="3.99029">
        <ele>94.48</ele>
        <time>2018-07-15T08:05:54.000Z</time>
      </trkpt>
      <trkpt lat="50.61045" lon="3.99007">
        <ele>95.68</ele>
        <time>2018-07-15T08:06:04.000Z</time>
      </trkpt>
      <trkpt lat="50.61045" lon="3.98989">
        <ele>93.49</ele>
        <time>2018-07-15T08:06:14.000Z</time>
      </trkpt>
      <trkpt lat="50.61046" lon="3.9896">
        <ele>93.8</ele>
        <time>2018-07-15T08:06:24.000Z</time>
      </trkpt>
      <trkpt lat="50.61046" lon="3.98946">
        <ele>94.93</ele>
        <time>2018-07-15T08:06:34.000Z</time>
      </trkpt>
      <trkpt lat="50.61049" lon="3.98922">
        <ele>94.49</ele>
        <time>2018-07-15T08:06:44.000Z</time>
      </trkpt>
      <trkpt lat="50.61048" lon="3.98899">
        <ele>91.99</ele>
        <time>2018-07-15T08:06:54.000Z</time>
      </trkpt>
      <trkpt lat="50.61045" lon="3.98883">
        <ele>93.74</ele>
        <time>2018-07-15T08:07:04.000Z</time>
      </trkpt>
      <trkpt lat="50.61045" lon="3.98861">
        <ele>91.49</ele>
        <time>2018-07-15T08:07:14.000Z</time>
      </trkpt>
      <trkpt lat="50.61044" lon="3.98835">
        <ele>92.8</ele>
        <time>2018-07-15T08:07:24.000Z</time>
      </trkpt>
      <trkpt lat="50.61043" lon="3.98826">
        <ele>90.98</ele>
        <time>2018-07-15T08:07:34.000Z</time>
      </trkpt>
      <trkpt lat="50.61044" lon="3.98817">
        <ele>91.74</ele>
        <time>2018-07-15T08:07:44.000Z</time>
      </trkpt>
      <trkpt lat="50.61043" lon="3.98795">
        <ele>90.81</ele>
        <time>2018-07-15T08:07:54.000Z</time>
      </trkpt>
      <trkpt lat="50.61041" lon="3.98774">
        <ele>92.99</ele>
        <time>2018-07-15T08:08:04.000Z</time>
      </trkpt>
      <trkpt lat="50.61041" lon="3.98743">
        <ele>95.75</ele>
        <time>2018-07-15T08:08:14.000Z</time>
      </trkpt>
      <trkpt lat="50.6104" lon="3.98725">
        <ele>91.81</ele>
        <time>2018-07-15T08:08:24.000Z</time>
      </trkpt>
      <trkpt lat="50.61037" lon="3.98713">
        <ele>94.43</ele>
        <time>2018-07-15T08:08:34.000Z</time>
      </trkpt>
      <trkpt lat="50.61034" lon="3.98692">
        <ele>94.68</ele>
        <time>2018-07-15T08:08:44.000Z</time>
      </trkpt>
      <trkpt lat="50.6103" lon="3.98666">
        <ele>94.81</ele>
        <time>2018-07-15T08:08:54.000Z</time>
      </trkpt>
      <trkpt lat="50.61025" lon="3.98649">
        <ele>93.49</ele>
        <time>2018-07-15T08:09:04.000Z</time>
      </trkpt>
      <trkpt lat="50.61017" lon="3.98628">
        <ele>95.9</ele>
        <time>2018-07-15T08:09:14.000Z</time>
      </trkpt>
      <trkpt lat="50.61009" lon="3.9862">
        <ele>94.76</ele>
        <time>2018-07-15T08:09:24.000Z</time>
      </trkpt>
      <trkpt lat="50.61" lon="3.986">
        <ele>95.44</ele>
        <time>2018-07-15T08:09:34.000Z</time>
      </trkpt>
      <trkpt lat="50.60985" lon="3.9858">
        <ele>97.69</ele>
        <time>2018-07-15T08:09:44.000Z</time>
      </trkpt>
      <trkpt lat="50.60981" lon="3.98572">
        <ele>96.73</ele>
        <time>2018-07-15T08:09:54.000Z</time>
      </trkpt>
      <trkpt lat="50.60969" lon="3.9856">
        <ele>96.74</ele>
        <time>2018-07-15T08:10:04.000Z</time>
      </trkpt>
      <trkpt lat="50.60962" lon="3.98545">
        <ele>96.68</ele>
        <time>2018-07-15T08:10:14.000Z</time>
      </trkpt>
      <trkpt lat="50.60952" lon="3.9853">
        <ele>97.69</ele>
        <time>2018-07-15T08:10:24.000Z</time>
      </trkpt>
      <trkpt lat="50.60936" lon="3.98514">
        <ele>100.8</ele>
        <time>2018-07-15T08:10:34.000Z</time>
      </trkpt>
      <trkpt lat="50.6093" lon="3.98503">
        <ele>100.2</ele>
        <time>2018-07-15T08:10:44.000Z</time>
      </trkpt>
      <trkpt lat="50.60921" lon="3.98485">
        <ele>99.7</ele>
        <time>2018-07-15T08:10:54.000Z</time>
      </trkpt>
      <trkpt lat="50.60912" lon="3.98473">
        <ele>101.54</ele>
        <time>2018-07-15T08:11:04.000Z</time>
      </trkpt>
      <trkpt lat="50.609" lon="3.98462">
        <ele>101.68</ele>
        <time>2018-07-15T08:11:14.000Z</time>
      </trkpt>
      <trkpt lat="50.60889" lon="3.98444">
        <ele>100.62</ele>
        <time>2018-07-15T08:11:24.000Z</time>
      </trkpt>
      <trkpt lat="50.60881" lon="3.98431">
        <ele>100.99</ele>
        <time>2018-07-15T08:11:34.000Z</time>
      </trkpt>
      <trkpt lat="50.60871" lon="3.98418">
        <ele>99.94</ele>
        <time>2018-07-15T08:11:44.000Z</time>
      </trkpt>
      <trkpt lat="50.60866" lon="3.98403">
        <ele>99.73</ele>
        <time>2018-07-15T08:11:54.000Z</time>
      </trkpt>
      <trkpt lat="50.60855" lon="3.9839">
        <ele>98.75</ele>
        <time>2018-07-15T08:12:04.000Z</time>
      </trkpt>
      <trkpt lat="50.60845" lon="3.98374">
        <ele>99.68</ele>
        <time>2018-07-15T08:12:14.000Z</time>
      </trkpt>
      <trkpt lat="50.60833" lon="3.98366">
        <ele>102.93</ele>
        <time>2018-07-15T08:12:24.000Z</time>
      </trkpt>
      <trkpt lat="50.60825" lon="3.98373">
        <ele>101.75</ele>
        <time>2018-07-15T08:12:34.000Z</time>
      </trkpt>
      <trkpt lat="50.60813" lon="3.98394">
        <ele>98.81</ele>
        <time>2018-07-15T08:12:44.000Z</time>
      </trkpt>
      <trkpt lat="50.60803" lon="3.98413">
        <ele>98.98</ele>
        <time>2018-07-15T08:12:54.000Z</time>
      </trkpt>
      <trkpt lat="50.60799" lon="3.98424">
        <ele>97.99</ele>
        <time>2018-07-15T08:13:04.000Z</time>
      </trkpt>
      <trkpt lat="50.6079" lon="3.98441">
        <ele>95.79</ele>
        <time>2018-07-15T08:13:14.000Z</time>
      </trkpt>
      <trkpt lat="50.60779" lon="3.98464">
        <ele>97.49</ele>
        <time>2018-07-15T08:13:24.000Z</time>
      </trkpt>
      <trkpt lat="50.60772" lon="3.98474">
        <ele>99.74</ele>
        <time>2018-07-15T08:13:34.000Z</time>
      </trkpt>
      <trkpt lat="50.60767" lon="3.98487">
        <ele>98.99</ele>
        <time>2018-07-15T08:13:44.000Z</time>
      </trkpt>
      <trkpt lat="50.60767" lon="3.98488">
        <ele>97.75</ele>
        <time>2018-07-15T08:13:58.000Z</time>
      </trkpt>
      <trkpt lat="50.60768" lon="3.98489">
        <ele>95.82</ele>
        <time>2018-07-15T08:15:00.000Z</time>
      </trkpt>
      <trkpt lat="50.60769" lon="3.98488">
        <ele>95.74</ele>
        <time>2018-07-15T08:15:10.000Z</time>
      </trkpt>
      <trkpt lat="50.60768" lon="3.98488">
        <ele>95.74</ele>
        <time>2018-07-15T08:15:20.000Z</time>
      </trkpt>
      <trkpt lat="50.60767" lon="3.98488">
        <ele>98.49</ele>
        <time>2018-07-15T08:18:13.000Z</time>
      </trkpt>
      <trkpt lat="50.60766" lon="3.98488">
        <ele>96.74</ele>
        <time>2018-07-15T08:18:45.000Z</time>
      </trkpt>
      <trkpt lat="50.60764" lon="3.98487">
        <ele>98.74</ele>
        <time>2018-07-15T08:18:55.000Z</time>
      </trkpt>
      <trkpt lat="50.60766" lon="3.98486">
        <ele>99.74</ele>
        <time>2018-07-15T08:19:05.000Z</time>
      </trkpt>
      <trkpt lat="50.60767" lon="3.98486">
        <ele>99.75</ele>
        <time>2018-07-15T08:19:18.000Z</time>
      </trkpt>
      <trkpt lat="50.60766" lon="3.98488">
        <ele>98.78</ele>
        <time>2018-07-15T08:19:43.000Z</time>
      </trkpt>
      <trkpt lat="50.60765" lon="3.98493">
        <ele>98.49</ele>
        <time>2018-07-15T08:19:53.000Z</time>
      </trkpt>
      <trkpt lat="50.6076" lon="3.98505">
        <ele>96.76</ele>
        <time>2018-07-15T08:20:03.000Z</time>
      </trkpt>
      <trkpt lat="50.60749" lon="3.9852">
        <ele>94.76</ele>
        <time>2018-07-15T08:20:13.000Z</time>
      </trkpt>
      <trkpt lat="50.60743" lon="3.98534">
        <ele>96.93</ele>
        <time>2018-07-15T08:20:23.000Z</time>
      </trkpt>
      <trkpt lat="50.60737" lon="3.98551">
        <ele>94.92</ele>
        <time>2018-07-15T08:20:33.000Z</time>
      </trkpt>
      <trkpt lat="50.60727" lon="3.98564">
        <ele>90.63</ele>
        <time>2018-07-15T08:20:43.000Z</time>
      </trkpt>
      <trkpt lat="50.6072" lon="3.98576">
        <ele>94.72</ele>
        <time>2018-07-15T08:20:53.000Z</time>
      </trkpt>
      <trkpt lat="50.60715" lon="3.98587">
        <ele>93.76</ele>
        <time>2018-07-15T08:21:03.000Z</time>
      </trkpt>
      <trkpt lat="50.60707" lon="3.98601">
        <ele>91.51</ele>
        <time>2018-07-15T08:21:13.000Z</time>
      </trkpt>
      <trkpt lat="50.60702" lon="3.98616">
        <ele>92.73</ele>
        <time>2018-07-15T08:21:23.000Z</time>
      </trkpt>
      <trkpt lat="50.60694" lon="3.98635">
        <ele>91.62</ele>
        <time>2018-07-15T08:21:33.000Z</time>
      </trkpt>
      <trkpt lat="50.60683" lon="3.98647">
        <ele>92.97</ele>
        <time>2018-07-15T08:21:43.000Z</time>
      </trkpt>
      <trkpt lat="50.60673" lon="3.98662">
        <ele>92.74</ele>
        <time>2018-07-15T08:21:53.000Z</time>
      </trkpt>
      <trkpt lat="50.60663" lon="3.98681">
        <ele>90.99</ele>
        <time>2018-07-15T08:22:03.000Z</time>
      </trkpt>
      <trkpt lat="50.60651" lon="3.98685">
        <ele>90.77</ele>
        <time>2018-07-15T08:22:13.000Z</time>
      </trkpt>
      <trkpt lat="50.6064" lon="3.98677">
        <ele>96.46</ele>
        <time>2018-07-15T08:22:23.000Z</time>
      </trkpt>
      <trkpt lat="50.60629" lon="3.98665">
        <ele>97.24</ele>
        <time>2018-07-15T08:22:33.000Z</time>
      </trkpt>
      <trkpt lat="50.6062" lon="3.98659">
        <ele>98.74</ele>
        <time>2018-07-15T08:22:43.000Z</time>
      </trkpt>
      <trkpt lat="50.60607" lon="3.98644">
        <ele>99.68</ele>
        <time>2018-07-15T08:22:53.000Z</time>
      </trkpt>
      <trkpt lat="50.606" lon="3.98633">
        <ele>96.51</ele>
        <time>2018-07-15T08:23:03.000Z</time>
      </trkpt>
      <trkpt lat="50.60587" lon="3.98617">
        <ele>94.54</ele>
        <time>2018-07-15T08:23:13.000Z</time>
      </trkpt>
      <trkpt lat="50.60574" lon="3.98602">
        <ele>93.5</ele>
        <time>2018-07-15T08:23:23.000Z</time>
      </trkpt>
      <trkpt lat="50.60567" lon="3.98595">
        <ele>91.8</ele>
        <time>2018-07-15T08:23:33.000Z</time>
      </trkpt>
      <trkpt lat="50.60551" lon="3.98584">
        <ele>89.74</ele>
        <time>2018-07-15T08:23:43.000Z</time>
      </trkpt>
      <trkpt lat="50.60543" lon="3.9858">
        <ele>89.51</ele>
        <time>2018-07-15T08:23:53.000Z</time>
      </trkpt>
      <trkpt lat="50.60539" lon="3.98573">
        <ele>91.73</ele>
        <time>2018-07-15T08:24:03.000Z</time>
      </trkpt>
      <trkpt lat="50.60527" lon="3.98558">
        <ele>90.76</ele>
        <time>2018-07-15T08:24:13.000Z</time>
      </trkpt>
      <trkpt lat="50.60517" lon="3.98548">
        <ele>87.75</ele>
        <time>2018-07-15T08:24:23.000Z</time>
      </trkpt>
      <trkpt lat="50.60503" lon="3.98537">
        <ele>87.99</ele>
        <time>2018-07-15T08:24:33.000Z</time>
      </trkpt>
      <trkpt lat="50.60494" lon="3.98543">
        <ele>86.8</ele>
        <time>2018-07-15T08:24:43.000Z</time>
      </trkpt>
      <trkpt lat="50.60486" lon="3.98559">
        <ele>87.68</ele>
        <time>2018-07-15T08:24:53.000Z</time>
      </trkpt>
      <trkpt lat="50.60479" lon="3.98576">
        <ele>90.62</ele>
        <time>2018-07-15T08:25:03.000Z</time>
      </trkpt>
      <trkpt lat="50.60467" lon="3.98595">
        <ele>89</ele>
        <time>2018-07-15T08:25:13.000Z</time>
      </trkpt>
      <trkpt lat="50.60459" lon="3.98608">
        <ele>89.68</ele>
        <time>2018-07-15T08:25:23.000Z</time>
      </trkpt>
      <trkpt lat="50.6045" lon="3.98623">
        <ele>90.74</ele>
        <time>2018-07-15T08:25:33.000Z</time>
      </trkpt>
      <trkpt lat="50.60442" lon="3.98641">
        <ele>94.66</ele>
        <time>2018-07-15T08:25:43.000Z</time>
      </trkpt>
      <trkpt lat="50.60437" lon="3.98655">
        <ele>95.74</ele>
        <time>2018-07-15T08:25:53.000Z</time>
      </trkpt>
      <trkpt lat="50.60431" lon="3.98661">
        <ele>94.79</ele>
        <time>2018-07-15T08:26:03.000Z</time>
      </trkpt>
      <trkpt lat="50.60413" lon="3.98675">
        <ele>97.24</ele>
        <time>2018-07-15T08:26:13.000Z</time>
      </trkpt>
      <trkpt lat="50.60403" lon="3.98681">
        <ele>95.49</ele>
        <time>2018-07-15T08:26:23.000Z</time>
      </trkpt>
      <trkpt lat="50.6039" lon="3.98695">
        <ele>93.99</ele>
        <time>2018-07-15T08:26:33.000Z</time>
      </trkpt>
      <trkpt lat="50.60376" lon="3.98709">
        <ele>94.74</ele>
        <time>2018-07-15T08:26:43.000Z</time>
      </trkpt>
      <trkpt lat="50.60367" lon="3.98716">
        <ele>95.73</ele>
        <time>2018-07-15T08:26:53.000Z</time>
      </trkpt>
      <trkpt lat="50.60354" lon="3.98731">
        <ele>98.99</ele>
        <time>2018-07-15T08:27:03.000Z</time>
      </trkpt>
      <trkpt lat="50.60347" lon="3.98738">
        <ele>97.99</ele>
        <time>2018-07-15T08:27:13.000Z</time>
      </trkpt>
      <trkpt lat="50.60332" lon="3.98755">
        <ele>95.82</ele>
        <time>2018-07-15T08:27:23.000Z</time>
      </trkpt>
      <trkpt lat="50.60325" lon="3.98763">
        <ele>96</ele>
        <time>2018-07-15T08:27:33.000Z</time>
      </trkpt>
      <trkpt lat="50.60316" lon="3.98781">
        <ele>98.49</ele>
        <time>2018-07-15T08:27:43.000Z</time>
      </trkpt>
      <trkpt lat="50.60308" lon="3.98791">
        <ele>100.91</ele>
        <time>2018-07-15T08:27:53.000Z</time>
      </trkpt>
      <trkpt lat="50.60298" lon="3.98802">
        <ele>99.68</ele>
        <time>2018-07-15T08:28:03.000Z</time>
      </trkpt>
      <trkpt lat="50.60289" lon="3.98816">
        <ele>99.86</ele>
        <time>2018-07-15T08:28:13.000Z</time>
      </trkpt>
      <trkpt lat="50.60278" lon="3.98831">
        <ele>99.92</ele>
        <time>2018-07-15T08:28:23.000Z</time>
      </trkpt>
      <trkpt lat="50.60266" lon="3.98851">
        <ele>94.85</ele>
        <time>2018-07-15T08:28:33.000Z</time>
      </trkpt>
      <trkpt lat="50.60264" lon="3.98864">
        <ele>97.23</ele>
        <time>2018-07-15T08:28:43.000Z</time>
      </trkpt>
      <trkpt lat="50.60258" lon="3.98877">
        <ele>96.99</ele>
        <time>2018-07-15T08:28:53.000Z</time>
      </trkpt>
      <trkpt lat="50.60251" lon="3.98895">
        <ele>97.67</ele>
        <time>2018-07-15T08:29:03.000Z</time>
      </trkpt>
      <trkpt lat="50.60241" lon="3.98913">
        <ele>97.72</ele>
        <time>2018-07-15T08:29:13.000Z</time>
      </trkpt>
      <trkpt lat="50.60231" lon="3.98926">
        <ele>95.8</ele>
        <time>2018-07-15T08:29:23.000Z</time>
      </trkpt>
      <trkpt lat="50.6022" lon="3.9894">
        <ele>95.67</ele>
        <time>2018-07-15T08:29:33.000Z</time>
      </trkpt>
      <trkpt lat="50.60212" lon="3.9896">
        <ele>94.74</ele>
        <time>2018-07-15T08:29:43.000Z</time>
      </trkpt>
      <trkpt lat="50.60206" lon="3.98972">
        <ele>94.81</ele>
        <time>2018-07-15T08:29:53.000Z</time>
      </trkpt>
      <trkpt lat="50.60197" lon="3.98989">
        <ele>92.74</ele>
        <time>2018-07-15T08:30:03.000Z</time>
      </trkpt>
      <trkpt lat="50.6019" lon="3.99009">
        <ele>96.47</ele>
        <time>2018-07-15T08:30:13.000Z</time>
      </trkpt>
      <trkpt lat="50.60181" lon="3.99022">
        <ele>98.78</ele>
        <time>2018-07-15T08:30:23.000Z</time>
      </trkpt>
      <trkpt lat="50.6017" lon="3.99038">
        <ele>98.73</ele>
        <time>2018-07-15T08:30:33.000Z</time>
      </trkpt>
      <trkpt lat="50.60163" lon="3.99054">
        <ele>99.92</ele>
        <time>2018-07-15T08:30:43.000Z</time>
      </trkpt>
      <trkpt lat="50.60156" lon="3.9907">
        <ele>104.42</ele>
        <time>2018-07-15T08:30:53.000Z</time>
      </trkpt>
      <trkpt lat="50.60149" lon="3.99093">
        <ele>104.78</ele>
        <time>2018-07-15T08:31:03.000Z</time>
      </trkpt>
      <trkpt lat="50.60148" lon="3.99108">
        <ele>105</ele>
        <time>2018-07-15T08:31:13.000Z</time>
      </trkpt>
      <trkpt lat="50.60145" lon="3.99125">
        <ele>107.73</ele>
        <time>2018-07-15T08:31:23.000Z</time>
      </trkpt>
      <trkpt lat="50.6014" lon="3.99149">
        <ele>105.75</ele>
        <time>2018-07-15T08:31:33.000Z</time>
      </trkpt>
      <trkpt lat="50.60139" lon="3.99167">
        <ele>104.99</ele>
        <time>2018-07-15T08:31:43.000Z</time>
      </trkpt>
      <trkpt lat="50.60133" lon="3.99186">
        <ele>100.75</ele>
        <time>2018-07-15T08:31:53.000Z</time>
      </trkpt>
      <trkpt lat="50.60128" lon="3.99206">
        <ele>101.73</ele>
        <time>2018-07-15T08:32:03.000Z</time>
      </trkpt>
      <trkpt lat="50.60125" lon="3.99222">
        <ele>103.49</ele>
        <time>2018-07-15T08:32:13.000Z</time>
      </trkpt>
      <trkpt lat="50.60124" lon="3.99241">
        <ele>104.91</ele>
        <time>2018-07-15T08:32:23.000Z</time>
      </trkpt>
      <trkpt lat="50.60122" lon="3.99264">
        <ele>102.75</ele>
        <time>2018-07-15T08:32:33.000Z</time>
      </trkpt>
      <trkpt lat="50.6012" lon="3.99284">
        <ele>102.49</ele>
        <time>2018-07-15T08:32:43.000Z</time>
      </trkpt>
      <trkpt lat="50.60119" lon="3.99306">
        <ele>102.98</ele>
        <time>2018-07-15T08:32:53.000Z</time>
      </trkpt>
      <trkpt lat="50.60112" lon="3.99331">
        <ele>103.86</ele>
        <time>2018-07-15T08:33:03.000Z</time>
      </trkpt>
      <trkpt lat="50.60109" lon="3.99346">
        <ele>103.98</ele>
        <time>2018-07-15T08:33:13.000Z</time>
      </trkpt>
      <trkpt lat="50.60102" lon="3.99371">
        <ele>102.79</ele>
        <time>2018-07-15T08:33:23.000Z</time>
      </trkpt>
      <trkpt lat="50.60096" lon="3.99382">
        <ele>102.47</ele>
        <time>2018-07-15T08:33:33.000Z</time>
      </trkpt>
      <trkpt lat="50.60091" lon="3.99404">
        <ele>103.37</ele>
        <time>2018-07-15T08:33:43.000Z</time>
      </trkpt>
      <trkpt lat="50.60083" lon="3.99429">
        <ele>97.98</ele>
        <time>2018-07-15T08:33:53.000Z</time>
      </trkpt>
      <trkpt lat="50.60077" lon="3.99442">
        <ele>102.66</ele>
        <time>2018-07-15T08:34:03.000Z</time>
      </trkpt>
      <trkpt lat="50.60073" lon="3.99464">
        <ele>99.7</ele>
        <time>2018-07-15T08:34:13.000Z</time>
      </trkpt>
      <trkpt lat="50.60066" lon="3.99485">
        <ele>101.66</ele>
        <time>2018-07-15T08:34:23.000Z</time>
      </trkpt>
      <trkpt lat="50.60063" lon="3.99502">
        <ele>102.06</ele>
        <time>2018-07-15T08:34:33.000Z</time>
      </trkpt>
      <trkpt lat="50.60057" lon="3.99526">
        <ele>99.9</ele>
        <time>2018-07-15T08:34:43.000Z</time>
      </trkpt>
      <trkpt lat="50.6005" lon="3.99537">
        <ele>101.71</ele>
        <time>2018-07-15T08:34:53.000Z</time>
      </trkpt>
      <trkpt lat="50.60044" lon="3.99561">
        <ele>99.54</ele>
        <time>2018-07-15T08:35:03.000Z</time>
      </trkpt>
      <trkpt lat="50.60036" lon="3.9959">
        <ele>97.49</ele>
        <time>2018-07-15T08:35:13.000Z</time>
      </trkpt>
      <trkpt lat="50.60034" lon="3.996">
        <ele>100.71</ele>
        <time>2018-07-15T08:35:23.000Z</time>
      </trkpt>
      <trkpt lat="50.60028" lon="3.99625">
        <ele>97.75</ele>
        <time>2018-07-15T08:35:33.000Z</time>
      </trkpt>
      <trkpt lat="50.60026" lon="3.99636">
        <ele>95.72</ele>
        <time>2018-07-15T08:35:43.000Z</time>
      </trkpt>
      <trkpt lat="50.60021" lon="3.99659">
        <ele>96.55</ele>
        <time>2018-07-15T08:35:53.000Z</time>
      </trkpt>
      <trkpt lat="50.60015" lon="3.99676">
        <ele>96.73</ele>
        <time>2018-07-15T08:36:03.000Z</time>
      </trkpt>
      <trkpt lat="50.60013" lon="3.99694">
        <ele>97.71</ele>
        <time>2018-07-15T08:36:13.000Z</time>
      </trkpt>
      <trkpt lat="50.6" lon="3.99722">
        <ele>99.68</ele>
        <time>2018-07-15T08:36:23.000Z</time>
      </trkpt>
      <trkpt lat="50.59994" lon="3.99733">
        <ele>97.9</ele>
        <time>2018-07-15T08:36:33.000Z</time>
      </trkpt>
      <trkpt lat="50.5999" lon="3.99747">
        <ele>98.74</ele>
        <time>2018-07-15T08:36:43.000Z</time>
      </trkpt>
      <trkpt lat="50.59976" lon="3.99773">
        <ele>95.98</ele>
        <time>2018-07-15T08:36:53.000Z</time>
      </trkpt>
      <trkpt lat="50.5997" lon="3.99785">
        <ele>100.66</ele>
        <time>2018-07-15T08:37:03.000Z</time>
      </trkpt>
      <trkpt lat="50.59964" lon="3.99802">
        <ele>99.74</ele>
        <time>2018-07-15T08:37:13.000Z</time>
      </trkpt>
      <trkpt lat="50.59962" lon="3.99815">
        <ele>99.73</ele>
        <time>2018-07-15T08:37:23.000Z</time>
      </trkpt>
      <trkpt lat="50.59952" lon="3.99837">
        <ele>99.71</ele>
        <time>2018-07-15T08:37:33.000Z</time>
      </trkpt>
      <trkpt lat="50.5994" lon="3.99858">
        <ele>98.6</ele>
        <time>2018-07-15T08:37:43.000Z</time>
      </trkpt>
      <trkpt lat="50.59936" lon="3.9987">
        <ele>100.65</ele>
        <time>2018-07-15T08:37:53.000Z</time>
      </trkpt>
      <trkpt lat="50.59926" lon="3.99892">
        <ele>101.46</ele>
        <time>2018-07-15T08:38:03.000Z</time>
      </trkpt>
      <trkpt lat="50.59921" lon="3.99902">
        <ele>101.48</ele>
        <time>2018-07-15T08:38:13.000Z</time>
      </trkpt>
      <trkpt lat="50.5991" lon="3.99917">
        <ele>99.48</ele>
        <time>2018-07-15T08:38:23.000Z</time>
      </trkpt>
      <trkpt lat="50.59899" lon="3.99937">
        <ele>98.71</ele>
        <time>2018-07-15T08:38:33.000Z</time>
      </trkpt>
      <trkpt lat="50.59891" lon="3.99952">
        <ele>97.98</ele>
        <time>2018-07-15T08:38:43.000Z</time>
      </trkpt>
      <trkpt lat="50.59883" lon="3.99978">
        <ele>100.73</ele>
        <time>2018-07-15T08:38:53.000Z</time>
      </trkpt>
      <trkpt lat="50.59881" lon="3.99988">
        <ele>98.49</ele>
        <time>2018-07-15T08:39:03.000Z</time>
      </trkpt>
      <trkpt lat="50.59884" lon="4.00014">
        <ele>100.65</ele>
        <time>2018-07-15T08:39:13.000Z</time>
      </trkpt>
      <trkpt lat="50.59886" lon="4.00042">
        <ele>98.67</ele>
        <time>2018-07-15T08:39:23.000Z</time>
      </trkpt>
      <trkpt lat="50.5989" lon="4.00056">
        <ele>100.66</ele>
        <time>2018-07-15T08:39:33.000Z</time>
      </trkpt>
      <trkpt lat="50.59896" lon="4.00081">
        <ele>94.87</ele>
        <time>2018-07-15T08:39:43.000Z</time>
      </trkpt>
      <trkpt lat="50.59902" lon="4.00105">
        <ele>98.65</ele>
        <time>2018-07-15T08:39:53.000Z</time>
      </trkpt>
      <trkpt lat="50.599" lon="4.00117">
        <ele>96.74</ele>
        <time>2018-07-15T08:40:03.000Z</time>
      </trkpt>
      <trkpt lat="50.59898" lon="4.00137">
        <ele>99.92</ele>
        <time>2018-07-15T08:40:13.000Z</time>
      </trkpt>
      <trkpt lat="50.59884" lon="4.0015">
        <ele>94.79</ele>
        <time>2018-07-15T08:40:23.000Z</time>
      </trkpt>
      <trkpt lat="50.59873" lon="4.0015">
        <ele>97.7</ele>
        <time>2018-07-15T08:40:33.000Z</time>
      </trkpt>
      <trkpt lat="50.59867" lon="4.00148">
        <ele>97.72</ele>
        <time>2018-07-15T08:40:43.000Z</time>
      </trkpt>
      <trkpt lat="50.59868" lon="4.00148">
        <ele>96.72</ele>
        <time>2018-07-15T08:40:53.000Z</time>
      </trkpt>
      <trkpt lat="50.59856" lon="4.00143">
        <ele>95.74</ele>
        <time>2018-07-15T08:41:03.000Z</time>
      </trkpt>
      <trkpt lat="50.59847" lon="4.00139">
        <ele>97.66</ele>
        <time>2018-07-15T08:41:13.000Z</time>
      </trkpt>
      <trkpt lat="50.59834" lon="4.0013">
        <ele>93.74</ele>
        <time>2018-07-15T08:41:23.000Z</time>
      </trkpt>
      <trkpt lat="50.59816" lon="4.00126">
        <ele>97.7</ele>
        <time>2018-07-15T08:41:33.000Z</time>
      </trkpt>
      <trkpt lat="50.59807" lon="4.00124">
        <ele>97.47</ele>
        <time>2018-07-15T08:41:43.000Z</time>
      </trkpt>
      <trkpt lat="50.59793" lon="4.00118">
        <ele>94.72</ele>
        <time>2018-07-15T08:41:53.000Z</time>
      </trkpt>
      <trkpt lat="50.59779" lon="4.00115">
        <ele>96.47</ele>
        <time>2018-07-15T08:42:03.000Z</time>
      </trkpt>
      <trkpt lat="50.59764" lon="4.00111">
        <ele>96.66</ele>
        <time>2018-07-15T08:42:13.000Z</time>
      </trkpt>
      <trkpt lat="50.59756" lon="4.00105">
        <ele>98.77</ele>
        <time>2018-07-15T08:42:23.000Z</time>
      </trkpt>
      <trkpt lat="50.59744" lon="4.00098">
        <ele>96.91</ele>
        <time>2018-07-15T08:42:33.000Z</time>
      </trkpt>
      <trkpt lat="50.59731" lon="4.0009">
        <ele>94.74</ele>
        <time>2018-07-15T08:42:43.000Z</time>
      </trkpt>
      <trkpt lat="50.59725" lon="4.00082">
        <ele>90.79</ele>
        <time>2018-07-15T08:42:53.000Z</time>
      </trkpt>
      <trkpt lat="50.59723" lon="4.0008">
        <ele>90.47</ele>
        <time>2018-07-15T08:43:03.000Z</time>
      </trkpt>
      <trkpt lat="50.59719" lon="4.0008">
        <ele>90.72</ele>
        <time>2018-07-15T08:43:13.000Z</time>
      </trkpt>
      <trkpt lat="50.5972" lon="4.00079">
        <ele>89.72</ele>
        <time>2018-07-15T08:43:23.000Z</time>
      </trkpt>
      <trkpt lat="50.59721" lon="4.0008">
        <ele>88.79</ele>
        <time>2018-07-15T08:43:44.000Z</time>
      </trkpt>
      <trkpt lat="50.59719" lon="4.00079">
        <ele>88.55</ele>
        <time>2018-07-15T08:43:54.000Z</time>
      </trkpt>
      <trkpt lat="50.59715" lon="4.00093">
        <ele>89.64</ele>
        <time>2018-07-15T08:44:04.000Z</time>
      </trkpt>
      <trkpt lat="50.59715" lon="4.00105">
        <ele>92.49</ele>
        <time>2018-07-15T08:44:14.000Z</time>
      </trkpt>
      <trkpt lat="50.59711" lon="4.0012">
        <ele>88.73</ele>
        <time>2018-07-15T08:44:24.000Z</time>
      </trkpt>
      <trkpt lat="50.59709" lon="4.00129">
        <ele>87.73</ele>
        <time>2018-07-15T08:44:34.000Z</time>
      </trkpt>
      <trkpt lat="50.59708" lon="4.00149">
        <ele>85.72</ele>
        <time>2018-07-15T08:44:44.000Z</time>
      </trkpt>
      <trkpt lat="50.59702" lon="4.00171">
        <ele>82.61</ele>
        <time>2018-07-15T08:44:54.000Z</time>
      </trkpt>
      <trkpt lat="50.59699" lon="4.00185">
        <ele>87.35</ele>
        <time>2018-07-15T08:45:04.000Z</time>
      </trkpt>
      <trkpt lat="50.59697" lon="4.00207">
        <ele>87.72</ele>
        <time>2018-07-15T08:45:14.000Z</time>
      </trkpt>
      <trkpt lat="50.59693" lon="4.00232">
        <ele>87.55</ele>
        <time>2018-07-15T08:45:24.000Z</time>
      </trkpt>
      <trkpt lat="50.59689" lon="4.00246">
        <ele>88.97</ele>
        <time>2018-07-15T08:45:34.000Z</time>
      </trkpt>
      <trkpt lat="50.59689" lon="4.0027">
        <ele>86.72</ele>
        <time>2018-07-15T08:45:44.000Z</time>
      </trkpt>
      <trkpt lat="50.59686" lon="4.00285">
        <ele>87.66</ele>
        <time>2018-07-15T08:45:54.000Z</time>
      </trkpt>
      <trkpt lat="50.59681" lon="4.00311">
        <ele>84.72</ele>
        <time>2018-07-15T08:46:04.000Z</time>
      </trkpt>
      <trkpt lat="50.59679" lon="4.00329">
        <ele>85.73</ele>
        <time>2018-07-15T08:46:14.000Z</time>
      </trkpt>
      <trkpt lat="50.59679" lon="4.00345">
        <ele>87.7</ele>
        <time>2018-07-15T08:46:24.000Z</time>
      </trkpt>
      <trkpt lat="50.59681" lon="4.00369">
        <ele>83.8</ele>
        <time>2018-07-15T08:46:34.000Z</time>
      </trkpt>
      <trkpt lat="50.59688" lon="4.00398">
        <ele>82.69</ele>
        <time>2018-07-15T08:46:44.000Z</time>
      </trkpt>
      <trkpt lat="50.5969" lon="4.00413">
        <ele>84.47</ele>
        <time>2018-07-15T08:46:54.000Z</time>
      </trkpt>
      <trkpt lat="50.59696" lon="4.00434">
        <ele>84.72</ele>
        <time>2018-07-15T08:47:04.000Z</time>
      </trkpt>
      <trkpt lat="50.59699" lon="4.00447">
        <ele>85.72</ele>
        <time>2018-07-15T08:47:14.000Z</time>
      </trkpt>
      <trkpt lat="50.59706" lon="4.0047">
        <ele>84.8</ele>
        <time>2018-07-15T08:47:24.000Z</time>
      </trkpt>
      <trkpt lat="50.5971" lon="4.00487">
        <ele>84.72</ele>
        <time>2018-07-15T08:47:34.000Z</time>
      </trkpt>
      <trkpt lat="50.59712" lon="4.005">
        <ele>83.74</ele>
        <time>2018-07-15T08:47:44.000Z</time>
      </trkpt>
      <trkpt lat="50.59713" lon="4.00519">
        <ele>83.72</ele>
        <time>2018-07-15T08:47:54.000Z</time>
      </trkpt>
      <trkpt lat="50.59716" lon="4.00534">
        <ele>84.65</ele>
        <time>2018-07-15T08:48:04.000Z</time>
      </trkpt>
      <trkpt lat="50.5972" lon="4.00552">
        <ele>87.46</ele>
        <time>2018-07-15T08:48:14.000Z</time>
      </trkpt>
      <trkpt lat="50.59725" lon="4.00576">
        <ele>85.77</ele>
        <time>2018-07-15T08:48:24.000Z</time>
      </trkpt>
      <trkpt lat="50.59727" lon="4.006">
        <ele>82.77</ele>
        <time>2018-07-15T08:48:34.000Z</time>
      </trkpt>
      <trkpt lat="50.59728" lon="4.00611">
        <ele>83.7</ele>
        <time>2018-07-15T08:48:44.000Z</time>
      </trkpt>
      <trkpt lat="50.59732" lon="4.00633">
        <ele>81.68</ele>
        <time>2018-07-15T08:48:54.000Z</time>
      </trkpt>
      <trkpt lat="50.59734" lon="4.0066">
        <ele>79.89</ele>
        <time>2018-07-15T08:49:04.000Z</time>
      </trkpt>
      <trkpt lat="50.59734" lon="4.00676">
        <ele>81.72</ele>
        <time>2018-07-15T08:49:14.000Z</time>
      </trkpt>
      <trkpt lat="50.59738" lon="4.007">
        <ele>81.76</ele>
        <time>2018-07-15T08:49:24.000Z</time>
      </trkpt>
      <trkpt lat="50.59743" lon="4.00721">
        <ele>84.51</ele>
        <time>2018-07-15T08:49:34.000Z</time>
      </trkpt>
      <trkpt lat="50.59745" lon="4.00738">
        <ele>85.7</ele>
        <time>2018-07-15T08:49:44.000Z</time>
      </trkpt>
      <trkpt lat="50.59746" lon="4.00761">
        <ele>85.71</ele>
        <time>2018-07-15T08:49:54.000Z</time>
      </trkpt>
      <trkpt lat="50.59749" lon="4.00778">
        <ele>85.72</ele>
        <time>2018-07-15T08:50:04.000Z</time>
      </trkpt>
      <trkpt lat="50.59753" lon="4.00795">
        <ele>88.45</ele>
        <time>2018-07-15T08:50:14.000Z</time>
      </trkpt>
      <trkpt lat="50.59758" lon="4.00819">
        <ele>90.01</ele>
        <time>2018-07-15T08:50:24.000Z</time>
      </trkpt>
      <trkpt lat="50.59761" lon="4.00832">
        <ele>88.78</ele>
        <time>2018-07-15T08:50:34.000Z</time>
      </trkpt>
      <trkpt lat="50.59765" lon="4.00852">
        <ele>93.47</ele>
        <time>2018-07-15T08:50:44.000Z</time>
      </trkpt>
      <trkpt lat="50.59768" lon="4.00879">
        <ele>86.71</ele>
        <time>2018-07-15T08:50:54.000Z</time>
      </trkpt>
      <trkpt lat="50.59773" lon="4.00902">
        <ele>84.67</ele>
        <time>2018-07-15T08:51:04.000Z</time>
      </trkpt>
      <trkpt lat="50.59776" lon="4.00914">
        <ele>85.65</ele>
        <time>2018-07-15T08:51:14.000Z</time>
      </trkpt>
      <trkpt lat="50.59779" lon="4.00938">
        <ele>83.65</ele>
        <time>2018-07-15T08:51:24.000Z</time>
      </trkpt>
      <trkpt lat="50.59782" lon="4.00961">
        <ele>81.68</ele>
        <time>2018-07-15T08:51:34.000Z</time>
      </trkpt>
      <trkpt lat="50.59782" lon="4.00973">
        <ele>80.9</ele>
        <time>2018-07-15T08:51:44.000Z</time>
      </trkpt>
      <trkpt lat="50.59787" lon="4.00998">
        <ele>80.67</ele>
        <time>2018-07-15T08:51:54.000Z</time>
      </trkpt>
      <trkpt lat="50.59789" lon="4.01012">
        <ele>80.83</ele>
        <time>2018-07-15T08:52:04.000Z</time>
      </trkpt>
      <trkpt lat="50.59794" lon="4.01039">
        <ele>77.71</ele>
        <time>2018-07-15T08:52:14.000Z</time>
      </trkpt>
      <trkpt lat="50.59801" lon="4.01055">
        <ele>78.4</ele>
        <time>2018-07-15T08:52:24.000Z</time>
      </trkpt>
      <trkpt lat="50.59805" lon="4.0107">
        <ele>81.46</ele>
        <time>2018-07-15T08:52:34.000Z</time>
      </trkpt>
      <trkpt lat="50.59813" lon="4.01094">
        <ele>79.71</ele>
        <time>2018-07-15T08:52:44.000Z</time>
      </trkpt>
      <trkpt lat="50.59814" lon="4.01111">
        <ele>81.95</ele>
        <time>2018-07-15T08:52:54.000Z</time>
      </trkpt>
      <trkpt lat="50.59817" lon="4.01132">
        <ele>81.73</ele>
        <time>2018-07-15T08:53:04.000Z</time>
      </trkpt>
      <trkpt lat="50.5982" lon="4.01159">
        <ele>81.65</ele>
        <time>2018-07-15T08:53:14.000Z</time>
      </trkpt>
      <trkpt lat="50.59819" lon="4.01173">
        <ele>80.98</ele>
        <time>2018-07-15T08:53:24.000Z</time>
      </trkpt>
      <trkpt lat="50.59827" lon="4.01198">
        <ele>78.65</ele>
        <time>2018-07-15T08:53:34.000Z</time>
      </trkpt>
      <trkpt lat="50.5983" lon="4.01228">
        <ele>82.18</ele>
        <time>2018-07-15T08:53:44.000Z</time>
      </trkpt>
      <trkpt lat="50.59831" lon="4.01241">
        <ele>79.71</ele>
        <time>2018-07-15T08:53:54.000Z</time>
      </trkpt>
      <trkpt lat="50.59834" lon="4.01259">
        <ele>78.02</ele>
        <time>2018-07-15T08:54:04.000Z</time>
      </trkpt>
      <trkpt lat="50.59839" lon="4.01282">
        <ele>78.71</ele>
        <time>2018-07-15T08:54:14.000Z</time>
      </trkpt>
      <trkpt lat="50.59843" lon="4.01311">
        <ele>77.65</ele>
        <time>2018-07-15T08:54:24.000Z</time>
      </trkpt>
      <trkpt lat="50.59841" lon="4.01328">
        <ele>79.46</ele>
        <time>2018-07-15T08:54:34.000Z</time>
      </trkpt>
      <trkpt lat="50.59841" lon="4.0134">
        <ele>81.52</ele>
        <time>2018-07-15T08:54:44.000Z</time>
      </trkpt>
      <trkpt lat="50.59844" lon="4.01361">
        <ele>81.52</ele>
        <time>2018-07-15T08:54:54.000Z</time>
      </trkpt>
      <trkpt lat="50.59854" lon="4.01385">
        <ele>80.65</ele>
        <time>2018-07-15T08:55:04.000Z</time>
      </trkpt>
      <trkpt lat="50.59864" lon="4.01409">
        <ele>82.69</ele>
        <time>2018-07-15T08:55:14.000Z</time>
      </trkpt>
      <trkpt lat="50.59868" lon="4.01425">
        <ele>83.7</ele>
        <time>2018-07-15T08:55:24.000Z</time>
      </trkpt>
      <trkpt lat="50.59874" lon="4.01447">
        <ele>80.71</ele>
        <time>2018-07-15T08:55:34.000Z</time>
      </trkpt>
      <trkpt lat="50.59879" lon="4.01461">
        <ele>78.71</ele>
        <time>2018-07-15T08:55:44.000Z</time>
      </trkpt>
      <trkpt lat="50.59885" lon="4.01479">
        <ele>78.52</ele>
        <time>2018-07-15T08:55:54.000Z</time>
      </trkpt>
      <trkpt lat="50.59887" lon="4.01503">
        <ele>80.71</ele>
        <time>2018-07-15T08:56:04.000Z</time>
      </trkpt>
      <trkpt lat="50.59889" lon="4.01522">
        <ele>79.96</ele>
        <time>2018-07-15T08:56:14.000Z</time>
      </trkpt>
      <trkpt lat="50.59892" lon="4.01544">
        <ele>80.72</ele>
        <time>2018-07-15T08:56:24.000Z</time>
      </trkpt>
      <trkpt lat="50.59895" lon="4.01561">
        <ele>80.79</ele>
        <time>2018-07-15T08:56:34.000Z</time>
      </trkpt>
      <trkpt lat="50.599" lon="4.01584">
        <ele>81.78</ele>
        <time>2018-07-15T08:56:44.000Z</time>
      </trkpt>
      <trkpt lat="50.59906" lon="4.01604">
        <ele>81.69</ele>
        <time>2018-07-15T08:56:54.000Z</time>
      </trkpt>
      <trkpt lat="50.59909" lon="4.01631">
        <ele>83.73</ele>
        <time>2018-07-15T08:57:04.000Z</time>
      </trkpt>
      <trkpt lat="50.59908" lon="4.01641">
        <ele>81.96</ele>
        <time>2018-07-15T08:57:14.000Z</time>
      </trkpt>
      <trkpt lat="50.5991" lon="4.01663">
        <ele>81.94</ele>
        <time>2018-07-15T08:57:24.000Z</time>
      </trkpt>
      <trkpt lat="50.59911" lon="4.01679">
        <ele>82.46</ele>
        <time>2018-07-15T08:57:34.000Z</time>
      </trkpt>
      <trkpt lat="50.59911" lon="4.01696">
        <ele>79.77</ele>
        <time>2018-07-15T08:57:44.000Z</time>
      </trkpt>
      <trkpt lat="50.5991" lon="4.01718">
        <ele>80.69</ele>
        <time>2018-07-15T08:57:54.000Z</time>
      </trkpt>
      <trkpt lat="50.59908" lon="4.01739">
        <ele>80.78</ele>
        <time>2018-07-15T08:58:04.000Z</time>
      </trkpt>
      <trkpt lat="50.59904" lon="4.01767">
        <ele>77.77</ele>
        <time>2018-07-15T08:58:14.000Z</time>
      </trkpt>
      <trkpt lat="50.59904" lon="4.01782">
        <ele>78.71</ele>
        <time>2018-07-15T08:58:24.000Z</time>
      </trkpt>
      <trkpt lat="50.59905" lon="4.01803">
        <ele>78.75</ele>
        <time>2018-07-15T08:58:34.000Z</time>
      </trkpt>
      <trkpt lat="50.59907" lon="4.01826">
        <ele>80.39</ele>
        <time>2018-07-15T08:58:44.000Z</time>
      </trkpt>
      <trkpt lat="50.59911" lon="4.0184">
        <ele>81.71</ele>
        <time>2018-07-15T08:58:54.000Z</time>
      </trkpt>
      <trkpt lat="50.59914" lon="4.0186">
        <ele>80.71</ele>
        <time>2018-07-15T08:59:04.000Z</time>
      </trkpt>
      <trkpt lat="50.59917" lon="4.01877">
        <ele>80.77</ele>
        <time>2018-07-15T08:59:14.000Z</time>
      </trkpt>
      <trkpt lat="50.59921" lon="4.01894">
        <ele>81.7</ele>
        <time>2018-07-15T08:59:24.000Z</time>
      </trkpt>
      <trkpt lat="50.59925" lon="4.01919">
        <ele>79.76</ele>
        <time>2018-07-15T08:59:34.000Z</time>
      </trkpt>
      <trkpt lat="50.59928" lon="4.01928">
        <ele>78.7</ele>
        <time>2018-07-15T08:59:44.000Z</time>
      </trkpt>
      <trkpt lat="50.59942" lon="4.01924">
        <ele>80.64</ele>
        <time>2018-07-15T08:59:54.000Z</time>
      </trkpt>
      <trkpt lat="50.59951" lon="4.0192">
        <ele>80.69</ele>
        <time>2018-07-15T09:00:04.000Z</time>
      </trkpt>
      <trkpt lat="50.5995" lon="4.01921">
        <ele>80.7</ele>
        <time>2018-07-15T09:00:14.000Z</time>
      </trkpt>
      <trkpt lat="50.59957" lon="4.01917">
        <ele>81.52</ele>
        <time>2018-07-15T09:00:24.000Z</time>
      </trkpt>
      <trkpt lat="50.59969" lon="4.01912">
        <ele>80.96</ele>
        <time>2018-07-15T09:00:34.000Z</time>
      </trkpt>
      <trkpt lat="50.59981" lon="4.01906">
        <ele>80.71</ele>
        <time>2018-07-15T09:00:44.000Z</time>
      </trkpt>
      <trkpt lat="50.59992" lon="4.01901">
        <ele>82.2</ele>
        <time>2018-07-15T09:00:54.000Z</time>
      </trkpt>
      <trkpt lat="50.60003" lon="4.01895">
        <ele>82.96</ele>
        <time>2018-07-15T09:01:04.000Z</time>
      </trkpt>
      <trkpt lat="50.60018" lon="4.01891">
        <ele>79.96</ele>
        <time>2018-07-15T09:01:14.000Z</time>
      </trkpt>
      <trkpt lat="50.60031" lon="4.01883">
        <ele>80.89</ele>
        <time>2018-07-15T09:01:24.000Z</time>
      </trkpt>
      <trkpt lat="50.60039" lon="4.01876">
        <ele>81.72</ele>
        <time>2018-07-15T09:01:34.000Z</time>
      </trkpt>
      <trkpt lat="50.6005" lon="4.0187">
        <ele>81.96</ele>
        <time>2018-07-15T09:01:44.000Z</time>
      </trkpt>
      <trkpt lat="50.60061" lon="4.01865">
        <ele>82.95</ele>
        <time>2018-07-15T09:01:54.000Z</time>
      </trkpt>
      <trkpt lat="50.6007" lon="4.0186">
        <ele>82.46</ele>
        <time>2018-07-15T09:02:04.000Z</time>
      </trkpt>
      <trkpt lat="50.60078" lon="4.01858">
        <ele>82.7</ele>
        <time>2018-07-15T09:02:14.000Z</time>
      </trkpt>
      <trkpt lat="50.60079" lon="4.01858">
        <ele>81.21</ele>
        <time>2018-07-15T09:02:31.000Z</time>
      </trkpt>
      <trkpt lat="50.60092" lon="4.01855">
        <ele>81.75</ele>
        <time>2018-07-15T09:02:41.000Z</time>
      </trkpt>
      <trkpt lat="50.60104" lon="4.01847">
        <ele>80.71</ele>
        <time>2018-07-15T09:02:51.000Z</time>
      </trkpt>
      <trkpt lat="50.60116" lon="4.01841">
        <ele>81.71</ele>
        <time>2018-07-15T09:03:01.000Z</time>
      </trkpt>
      <trkpt lat="50.60129" lon="4.01836">
        <ele>80.69</ele>
        <time>2018-07-15T09:03:11.000Z</time>
      </trkpt>
      <trkpt lat="50.60143" lon="4.0183">
        <ele>79.97</ele>
        <time>2018-07-15T09:03:21.000Z</time>
      </trkpt>
      <trkpt lat="50.60155" lon="4.0182">
        <ele>80.51</ele>
        <time>2018-07-15T09:03:31.000Z</time>
      </trkpt>
      <trkpt lat="50.60161" lon="4.01813">
        <ele>83.21</ele>
        <time>2018-07-15T09:03:41.000Z</time>
      </trkpt>
      <trkpt lat="50.6017" lon="4.01806">
        <ele>82.46</ele>
        <time>2018-07-15T09:03:51.000Z</time>
      </trkpt>
      <trkpt lat="50.60185" lon="4.01793">
        <ele>82.95</ele>
        <time>2018-07-15T09:04:01.000Z</time>
      </trkpt>
      <trkpt lat="50.60193" lon="4.01786">
        <ele>82.78</ele>
        <time>2018-07-15T09:04:11.000Z</time>
      </trkpt>
      <trkpt lat="50.6021" lon="4.01768">
        <ele>81.91</ele>
        <time>2018-07-15T09:04:21.000Z</time>
      </trkpt>
      <trkpt lat="50.60217" lon="4.01758">
        <ele>84.65</ele>
        <time>2018-07-15T09:04:31.000Z</time>
      </trkpt>
      <trkpt lat="50.60223" lon="4.01741">
        <ele>85.65</ele>
        <time>2018-07-15T09:04:41.000Z</time>
      </trkpt>
      <trkpt lat="50.60237" lon="4.0172">
        <ele>83.97</ele>
        <time>2018-07-15T09:04:51.000Z</time>
      </trkpt>
      <trkpt lat="50.60245" lon="4.01717">
        <ele>85.01</ele>
        <time>2018-07-15T09:05:01.000Z</time>
      </trkpt>
      <trkpt lat="50.60258" lon="4.01712">
        <ele>84.65</ele>
        <time>2018-07-15T09:05:11.000Z</time>
      </trkpt>
      <trkpt lat="50.60269" lon="4.01707">
        <ele>83.71</ele>
        <time>2018-07-15T09:05:21.000Z</time>
      </trkpt>
      <trkpt lat="50.60283" lon="4.01704">
        <ele>83.48</ele>
        <time>2018-07-15T09:05:31.000Z</time>
      </trkpt>
      <trkpt lat="50.60295" lon="4.01698">
        <ele>82.77</ele>
        <time>2018-07-15T09:05:41.000Z</time>
      </trkpt>
      <trkpt lat="50.60309" lon="4.01689">
        <ele>83.46</ele>
        <time>2018-07-15T09:05:51.000Z</time>
      </trkpt>
      <trkpt lat="50.60318" lon="4.01679">
        <ele>87.69</ele>
        <time>2018-07-15T09:06:01.000Z</time>
      </trkpt>
      <trkpt lat="50.60327" lon="4.01672">
        <ele>86.73</ele>
        <time>2018-07-15T09:06:11.000Z</time>
      </trkpt>
      <trkpt lat="50.60338" lon="4.01666">
        <ele>85.97</ele>
        <time>2018-07-15T09:06:21.000Z</time>
      </trkpt>
      <trkpt lat="50.60347" lon="4.01662">
        <ele>82.04</ele>
        <time>2018-07-15T09:06:31.000Z</time>
      </trkpt>
      <trkpt lat="50.60361" lon="4.0166">
        <ele>81.71</ele>
        <time>2018-07-15T09:06:41.000Z</time>
      </trkpt>
      <trkpt lat="50.60374" lon="4.01654">
        <ele>84.47</ele>
        <time>2018-07-15T09:06:51.000Z</time>
      </trkpt>
      <trkpt lat="50.60383" lon="4.01642">
        <ele>86.95</ele>
        <time>2018-07-15T09:07:01.000Z</time>
      </trkpt>
      <trkpt lat="50.60394" lon="4.01635">
        <ele>86.7</ele>
        <time>2018-07-15T09:07:11.000Z</time>
      </trkpt>
      <trkpt lat="50.60404" lon="4.01623">
        <ele>85.71</ele>
        <time>2018-07-15T09:07:21.000Z</time>
      </trkpt>
      <trkpt lat="50.60412" lon="4.01607">
        <ele>90.38</ele>
        <time>2018-07-15T09:07:31.000Z</time>
      </trkpt>
      <trkpt lat="50.60422" lon="4.01596">
        <ele>92.71</ele>
        <time>2018-07-15T09:07:41.000Z</time>
      </trkpt>
      <trkpt lat="50.60423" lon="4.01601">
        <ele>93.71</ele>
        <time>2018-07-15T09:07:51.000Z</time>
      </trkpt>
      <trkpt lat="50.60424" lon="4.016">
        <ele>93.71</ele>
        <time>2018-07-15T09:08:15.000Z</time>
      </trkpt>
      <trkpt lat="50.60426" lon="4.01604">
        <ele>90.71</ele>
        <time>2018-07-15T09:08:25.000Z</time>
      </trkpt>
      <trkpt lat="50.60428" lon="4.01606">
        <ele>93.58</ele>
        <time>2018-07-15T09:08:35.000Z</time>
      </trkpt>
      <trkpt lat="50.60427" lon="4.01604">
        <ele>94.71</ele>
        <time>2018-07-15T09:08:45.000Z</time>
      </trkpt>
      <trkpt lat="50.60426" lon="4.01602">
        <ele>92.78</ele>
        <time>2018-07-15T09:09:33.000Z</time>
      </trkpt>
      <trkpt lat="50.60427" lon="4.01601">
        <ele>90.77</ele>
        <time>2018-07-15T09:09:43.000Z</time>
      </trkpt>
      <trkpt lat="50.60426" lon="4.01603">
        <ele>90.72</ele>
        <time>2018-07-15T09:09:53.000Z</time>
      </trkpt>
      <trkpt lat="50.60426" lon="4.01604">
        <ele>91.71</ele>
        <time>2018-07-15T09:10:03.000Z</time>
      </trkpt>
      <trkpt lat="50.60426" lon="4.01603">
        <ele>89.71</ele>
        <time>2018-07-15T09:11:18.000Z</time>
      </trkpt>
      <trkpt lat="50.60425" lon="4.01604">
        <ele>88.71</ele>
        <time>2018-07-15T09:11:28.000Z</time>
      </trkpt>
      <trkpt lat="50.60426" lon="4.01603">
        <ele>89.94</ele>
        <time>2018-07-15T09:12:02.000Z</time>
      </trkpt>
      <trkpt lat="50.60426" lon="4.01604">
        <ele>91.71</ele>
        <time>2018-07-15T09:12:28.000Z</time>
      </trkpt>
      <trkpt lat="50.60426" lon="4.01604">
        <ele>91.71</ele>
        <time>2018-07-15T09:12:39.000Z</time>
      </trkpt>
      <trkpt lat="50.60424" lon="4.01604">
        <ele>89.71</ele>
        <time>2018-07-15T09:12:49.000Z</time>
      </trkpt>
      <trkpt lat="50.60424" lon="4.01605">
        <ele>89.71</ele>
        <time>2018-07-15T09:13:17.000Z</time>
      </trkpt>
      <trkpt lat="50.60418" lon="4.01597">
        <ele>92.4</ele>
        <time>2018-07-15T09:13:27.000Z</time>
      </trkpt>
      <trkpt lat="50.60413" lon="4.01606">
        <ele>90.65</ele>
        <time>2018-07-15T09:13:37.000Z</time>
      </trkpt>
      <trkpt lat="50.60412" lon="4.01618">
        <ele>92.71</ele>
        <time>2018-07-15T09:13:47.000Z</time>
      </trkpt>
      <trkpt lat="50.6041" lon="4.01628">
        <ele>90.73</ele>
        <time>2018-07-15T09:13:57.000Z</time>
      </trkpt>
      <trkpt lat="50.6041" lon="4.01622">
        <ele>89.96</ele>
        <time>2018-07-15T09:14:07.000Z</time>
      </trkpt>
      <trkpt lat="50.60413" lon="4.01611">
        <ele>89.71</ele>
        <time>2018-07-15T09:14:17.000Z</time>
      </trkpt>
      <trkpt lat="50.60417" lon="4.016">
        <ele>91.71</ele>
        <time>2018-07-15T09:14:27.000Z</time>
      </trkpt>
      <trkpt lat="50.60423" lon="4.01601">
        <ele>93.69</ele>
        <time>2018-07-15T09:14:37.000Z</time>
      </trkpt>
      <trkpt lat="50.60424" lon="4.01601">
        <ele>93.71</ele>
        <time>2018-07-15T09:15:18.000Z</time>
      </trkpt>
      <trkpt lat="50.60425" lon="4.01601">
        <ele>94.71</ele>
        <time>2018-07-15T09:15:42.000Z</time>
      </trkpt>
      <trkpt lat="50.60427" lon="4.01607">
        <ele>93.69</ele>
        <time>2018-07-15T09:15:52.000Z</time>
      </trkpt>
      <trkpt lat="50.6043" lon="4.01613">
        <ele>97.71</ele>
        <time>2018-07-15T09:16:02.000Z</time>
      </trkpt>
      <trkpt lat="50.60439" lon="4.01629">
        <ele>96.46</ele>
        <time>2018-07-15T09:16:12.000Z</time>
      </trkpt>
      <trkpt lat="50.60443" lon="4.01646">
        <ele>95.02</ele>
        <time>2018-07-15T09:16:22.000Z</time>
      </trkpt>
      <trkpt lat="50.60452" lon="4.01658">
        <ele>97.46</ele>
        <time>2018-07-15T09:16:32.000Z</time>
      </trkpt>
      <trkpt lat="50.60463" lon="4.01672">
        <ele>96.71</ele>
        <time>2018-07-15T09:16:42.000Z</time>
      </trkpt>
      <trkpt lat="50.60471" lon="4.01684">
        <ele>97.44</ele>
        <time>2018-07-15T09:16:52.000Z</time>
      </trkpt>
      <trkpt lat="50.60479" lon="4.01692">
        <ele>97.65</ele>
        <time>2018-07-15T09:17:02.000Z</time>
      </trkpt>
      <trkpt lat="50.60487" lon="4.01707">
        <ele>94.49</ele>
        <time>2018-07-15T09:17:12.000Z</time>
      </trkpt>
      <trkpt lat="50.60496" lon="4.0172">
        <ele>98.75</ele>
        <time>2018-07-15T09:17:22.000Z</time>
      </trkpt>
      <trkpt lat="50.60504" lon="4.0173">
        <ele>100.96</ele>
        <time>2018-07-15T09:17:32.000Z</time>
      </trkpt>
      <trkpt lat="50.60508" lon="4.01753">
        <ele>100.71</ele>
        <time>2018-07-15T09:17:42.000Z</time>
      </trkpt>
      <trkpt lat="50.60513" lon="4.01764">
        <ele>99.77</ele>
        <time>2018-07-15T09:17:52.000Z</time>
      </trkpt>
      <trkpt lat="50.60522" lon="4.0178">
        <ele>97.71</ele>
        <time>2018-07-15T09:18:02.000Z</time>
      </trkpt>
      <trkpt lat="50.6053" lon="4.01796">
        <ele>94.27</ele>
        <time>2018-07-15T09:18:12.000Z</time>
      </trkpt>
      <trkpt lat="50.60538" lon="4.01811">
        <ele>94.71</ele>
        <time>2018-07-15T09:18:22.000Z</time>
      </trkpt>
      <trkpt lat="50.60546" lon="4.01823">
        <ele>98.2</ele>
        <time>2018-07-15T09:18:32.000Z</time>
      </trkpt>
      <trkpt lat="50.6055" lon="4.01834">
        <ele>100.74</ele>
        <time>2018-07-15T09:18:42.000Z</time>
      </trkpt>
      <trkpt lat="50.60562" lon="4.01852">
        <ele>97.96</ele>
        <time>2018-07-15T09:18:52.000Z</time>
      </trkpt>
      <trkpt lat="50.60572" lon="4.01874">
        <ele>94.77</ele>
        <time>2018-07-15T09:19:02.000Z</time>
      </trkpt>
      <trkpt lat="50.60578" lon="4.01892">
        <ele>92.71</ele>
        <time>2018-07-15T09:19:12.000Z</time>
      </trkpt>
      <trkpt lat="50.60585" lon="4.01908">
        <ele>91.6</ele>
        <time>2018-07-15T09:19:22.000Z</time>
      </trkpt>
      <trkpt lat="50.60593" lon="4.0192">
        <ele>88.89</ele>
        <time>2018-07-15T09:19:32.000Z</time>
      </trkpt>
      <trkpt lat="50.606" lon="4.01935">
        <ele>90.39</ele>
        <time>2018-07-15T09:19:42.000Z</time>
      </trkpt>
      <trkpt lat="50.60604" lon="4.01945">
        <ele>92.45</ele>
        <time>2018-07-15T09:19:52.000Z</time>
      </trkpt>
      <trkpt lat="50.60616" lon="4.01962">
        <ele>97.69</ele>
        <time>2018-07-15T09:20:02.000Z</time>
      </trkpt>
      <trkpt lat="50.60629" lon="4.01975">
        <ele>98.77</ele>
        <time>2018-07-15T09:20:12.000Z</time>
      </trkpt>
      <trkpt lat="50.60639" lon="4.01995">
        <ele>93.22</ele>
        <time>2018-07-15T09:20:22.000Z</time>
      </trkpt>
      <trkpt lat="50.60648" lon="4.0201">
        <ele>93.68</ele>
        <time>2018-07-15T09:20:32.000Z</time>
      </trkpt>
      <trkpt lat="50.60656" lon="4.02026">
        <ele>91.66</ele>
        <time>2018-07-15T09:20:42.000Z</time>
      </trkpt>
      <trkpt lat="50.60668" lon="4.02038">
        <ele>92.52</ele>
        <time>2018-07-15T09:20:52.000Z</time>
      </trkpt>
      <trkpt lat="50.60676" lon="4.02053">
        <ele>89.72</ele>
        <time>2018-07-15T09:21:02.000Z</time>
      </trkpt>
      <trkpt lat="50.60684" lon="4.02068">
        <ele>90.94</ele>
        <time>2018-07-15T09:21:12.000Z</time>
      </trkpt>
      <trkpt lat="50.60692" lon="4.02088">
        <ele>89.77</ele>
        <time>2018-07-15T09:21:22.000Z</time>
      </trkpt>
      <trkpt lat="50.60696" lon="4.02101">
        <ele>89.46</ele>
        <time>2018-07-15T09:21:32.000Z</time>
      </trkpt>
      <trkpt lat="50.60706" lon="4.02125">
        <ele>91.5</ele>
        <time>2018-07-15T09:21:42.000Z</time>
      </trkpt>
      <trkpt lat="50.60713" lon="4.02139">
        <ele>89.71</ele>
        <time>2018-07-15T09:21:52.000Z</time>
      </trkpt>
      <trkpt lat="50.60721" lon="4.02155">
        <ele>89.77</ele>
        <time>2018-07-15T09:22:02.000Z</time>
      </trkpt>
      <trkpt lat="50.60731" lon="4.02169">
        <ele>91.21</ele>
        <time>2018-07-15T09:22:12.000Z</time>
      </trkpt>
      <trkpt lat="50.60743" lon="4.02188">
        <ele>91.7</ele>
        <time>2018-07-15T09:22:22.000Z</time>
      </trkpt>
      <trkpt lat="50.60752" lon="4.02202">
        <ele>91.96</ele>
        <time>2018-07-15T09:22:32.000Z</time>
      </trkpt>
      <trkpt lat="50.6076" lon="4.02227">
        <ele>90.97</ele>
        <time>2018-07-15T09:22:42.000Z</time>
      </trkpt>
      <trkpt lat="50.60763" lon="4.0224">
        <ele>90.95</ele>
        <time>2018-07-15T09:22:52.000Z</time>
      </trkpt>
      <trkpt lat="50.60771" lon="4.02262">
        <ele>90.69</ele>
        <time>2018-07-15T09:23:02.000Z</time>
      </trkpt>
      <trkpt lat="50.60775" lon="4.02278">
        <ele>89.7</ele>
        <time>2018-07-15T09:23:12.000Z</time>
      </trkpt>
      <trkpt lat="50.60782" lon="4.02297">
        <ele>89.7</ele>
        <time>2018-07-15T09:23:22.000Z</time>
      </trkpt>
      <trkpt lat="50.60788" lon="4.02317">
        <ele>88.46</ele>
        <time>2018-07-15T09:23:32.000Z</time>
      </trkpt>
      <trkpt lat="50.60794" lon="4.02336">
        <ele>87.72</ele>
        <time>2018-07-15T09:23:42.000Z</time>
      </trkpt>
      <trkpt lat="50.60799" lon="4.02355">
        <ele>88.71</ele>
        <time>2018-07-15T09:23:52.000Z</time>
      </trkpt>
      <trkpt lat="50.60806" lon="4.02373">
        <ele>87.7</ele>
        <time>2018-07-15T09:24:02.000Z</time>
      </trkpt>
      <trkpt lat="50.60812" lon="4.02391">
        <ele>87.69</ele>
        <time>2018-07-15T09:24:12.000Z</time>
      </trkpt>
      <trkpt lat="50.60818" lon="4.0241">
        <ele>86.77</ele>
        <time>2018-07-15T09:24:22.000Z</time>
      </trkpt>
      <trkpt lat="50.60824" lon="4.02429">
        <ele>86.71</ele>
        <time>2018-07-15T09:24:33.000Z</time>
      </trkpt>
      <trkpt lat="50.60827" lon="4.02448">
        <ele>87.95</ele>
        <time>2018-07-15T09:24:43.000Z</time>
      </trkpt>
      <trkpt lat="50.60832" lon="4.02468">
        <ele>87.41</ele>
        <time>2018-07-15T09:24:53.000Z</time>
      </trkpt>
      <trkpt lat="50.60833" lon="4.02489">
        <ele>85.72</ele>
        <time>2018-07-15T09:25:03.000Z</time>
      </trkpt>
      <trkpt lat="50.60834" lon="4.02508">
        <ele>86.69</ele>
        <time>2018-07-15T09:25:13.000Z</time>
      </trkpt>
      <trkpt lat="50.60835" lon="4.02524">
        <ele>83.67</ele>
        <time>2018-07-15T09:25:23.000Z</time>
      </trkpt>
      <trkpt lat="50.60834" lon="4.02543">
        <ele>82.77</ele>
        <time>2018-07-15T09:25:33.000Z</time>
      </trkpt>
      <trkpt lat="50.60839" lon="4.02564">
        <ele>81.94</ele>
        <time>2018-07-15T09:25:43.000Z</time>
      </trkpt>
      <trkpt lat="50.60842" lon="4.0259">
        <ele>83.75</ele>
        <time>2018-07-15T09:25:53.000Z</time>
      </trkpt>
      <trkpt lat="50.60842" lon="4.02607">
        <ele>84.64</ele>
        <time>2018-07-15T09:26:03.000Z</time>
      </trkpt>
      <trkpt lat="50.60844" lon="4.02624">
        <ele>86.71</ele>
        <time>2018-07-15T09:26:13.000Z</time>
      </trkpt>
      <trkpt lat="50.60843" lon="4.02654">
        <ele>85.74</ele>
        <time>2018-07-15T09:26:23.000Z</time>
      </trkpt>
      <trkpt lat="50.60843" lon="4.02673">
        <ele>83.72</ele>
        <time>2018-07-15T09:26:33.000Z</time>
      </trkpt>
      <trkpt lat="50.60843" lon="4.02691">
        <ele>81.77</ele>
        <time>2018-07-15T09:26:43.000Z</time>
      </trkpt>
      <trkpt lat="50.60845" lon="4.02709">
        <ele>81.69</ele>
        <time>2018-07-15T09:26:53.000Z</time>
      </trkpt>
      <trkpt lat="50.60848" lon="4.02736">
        <ele>79.69</ele>
        <time>2018-07-15T09:27:03.000Z</time>
      </trkpt>
      <trkpt lat="50.60849" lon="4.02756">
        <ele>79.95</ele>
        <time>2018-07-15T09:27:13.000Z</time>
      </trkpt>
      <trkpt lat="50.60851" lon="4.02777">
        <ele>82.62</ele>
        <time>2018-07-15T09:27:23.000Z</time>
      </trkpt>
      <trkpt lat="50.60847" lon="4.02804">
        <ele>84.96</ele>
        <time>2018-07-15T09:27:33.000Z</time>
      </trkpt>
      <trkpt lat="50.60848" lon="4.02814">
        <ele>83.52</ele>
        <time>2018-07-15T09:27:43.000Z</time>
      </trkpt>
      <trkpt lat="50.60846" lon="4.02829">
        <ele>85.71</ele>
        <time>2018-07-15T09:27:53.000Z</time>
      </trkpt>
      <trkpt lat="50.60846" lon="4.02848">
        <ele>86.7</ele>
        <time>2018-07-15T09:28:03.000Z</time>
      </trkpt>
      <trkpt lat="50.60844" lon="4.0287">
        <ele>83.99</ele>
        <time>2018-07-15T09:28:13.000Z</time>
      </trkpt>
      <trkpt lat="50.60841" lon="4.02889">
        <ele>80.7</ele>
        <time>2018-07-15T09:28:23.000Z</time>
      </trkpt>
      <trkpt lat="50.60845" lon="4.02923">
        <ele>78.99</ele>
        <time>2018-07-15T09:28:33.000Z</time>
      </trkpt>
      <trkpt lat="50.60843" lon="4.02951">
        <ele>76.69</ele>
        <time>2018-07-15T09:28:43.000Z</time>
      </trkpt>
      <trkpt lat="50.60842" lon="4.02975">
        <ele>74.96</ele>
        <time>2018-07-15T09:28:53.000Z</time>
      </trkpt>
      <trkpt lat="50.6084" lon="4.02982">
        <ele>74.7</ele>
        <time>2018-07-15T09:29:03.000Z</time>
      </trkpt>
      <trkpt lat="50.60829" lon="4.03005">
        <ele>73.7</ele>
        <time>2018-07-15T09:29:13.000Z</time>
      </trkpt>
      <trkpt lat="50.60821" lon="4.03022">
        <ele>75.45</ele>
        <time>2018-07-15T09:29:23.000Z</time>
      </trkpt>
      <trkpt lat="50.60812" lon="4.03047">
        <ele>75.69</ele>
        <time>2018-07-15T09:29:33.000Z</time>
      </trkpt>
      <trkpt lat="50.60799" lon="4.03063">
        <ele>72.72</ele>
        <time>2018-07-15T09:29:43.000Z</time>
      </trkpt>
      <trkpt lat="50.60793" lon="4.03066">
        <ele>74.63</ele>
        <time>2018-07-15T09:29:53.000Z</time>
      </trkpt>
      <trkpt lat="50.60782" lon="4.03076">
        <ele>74.76</ele>
        <time>2018-07-15T09:30:03.000Z</time>
      </trkpt>
      <trkpt lat="50.60772" lon="4.03091">
        <ele>76.63</ele>
        <time>2018-07-15T09:30:13.000Z</time>
      </trkpt>
      <trkpt lat="50.60762" lon="4.03113">
        <ele>79.45</ele>
        <time>2018-07-15T09:30:23.000Z</time>
      </trkpt>
      <trkpt lat="50.60763" lon="4.03138">
        <ele>77.71</ele>
        <time>2018-07-15T09:30:33.000Z</time>
      </trkpt>
      <trkpt lat="50.60767" lon="4.03151">
        <ele>75.82</ele>
        <time>2018-07-15T09:30:43.000Z</time>
      </trkpt>
      <trkpt lat="50.60775" lon="4.03169">
        <ele>73.76</ele>
        <time>2018-07-15T09:30:53.000Z</time>
      </trkpt>
      <trkpt lat="50.60782" lon="4.03179">
        <ele>75.5</ele>
        <time>2018-07-15T09:31:03.000Z</time>
      </trkpt>
      <trkpt lat="50.60798" lon="4.03198">
        <ele>73.7</ele>
        <time>2018-07-15T09:31:13.000Z</time>
      </trkpt>
      <trkpt lat="50.60811" lon="4.03202">
        <ele>75.13</ele>
        <time>2018-07-15T09:31:23.000Z</time>
      </trkpt>
      <trkpt lat="50.60826" lon="4.03206">
        <ele>78.68</ele>
        <time>2018-07-15T09:31:33.000Z</time>
      </trkpt>
      <trkpt lat="50.60841" lon="4.03217">
        <ele>79.55</ele>
        <time>2018-07-15T09:31:43.000Z</time>
      </trkpt>
      <trkpt lat="50.60853" lon="4.03227">
        <ele>78.44</ele>
        <time>2018-07-15T09:31:53.000Z</time>
      </trkpt>
      <trkpt lat="50.60865" lon="4.03236">
        <ele>79.5</ele>
        <time>2018-07-15T09:32:03.000Z</time>
      </trkpt>
      <trkpt lat="50.6088" lon="4.03244">
        <ele>77.71</ele>
        <time>2018-07-15T09:32:13.000Z</time>
      </trkpt>
      <trkpt lat="50.60895" lon="4.03255">
        <ele>76.82</ele>
        <time>2018-07-15T09:32:23.000Z</time>
      </trkpt>
      <trkpt lat="50.60904" lon="4.03259">
        <ele>81.6</ele>
        <time>2018-07-15T09:32:33.000Z</time>
      </trkpt>
      <trkpt lat="50.60919" lon="4.03265">
        <ele>84.65</ele>
        <time>2018-07-15T09:32:43.000Z</time>
      </trkpt>
      <trkpt lat="50.6093" lon="4.03272">
        <ele>85.43</ele>
        <time>2018-07-15T09:32:53.000Z</time>
      </trkpt>
      <trkpt lat="50.60943" lon="4.03287">
        <ele>81.7</ele>
        <time>2018-07-15T09:33:03.000Z</time>
      </trkpt>
      <trkpt lat="50.60941" lon="4.03306">
        <ele>84.68</ele>
        <time>2018-07-15T09:33:13.000Z</time>
      </trkpt>
      <trkpt lat="50.60932" lon="4.03325">
        <ele>80.69</ele>
        <time>2018-07-15T09:33:23.000Z</time>
      </trkpt>
      <trkpt lat="50.60928" lon="4.03343">
        <ele>78.8</ele>
        <time>2018-07-15T09:33:33.000Z</time>
      </trkpt>
      <trkpt lat="50.60911" lon="4.03357">
        <ele>83.69</ele>
        <time>2018-07-15T09:33:43.000Z</time>
      </trkpt>
      <trkpt lat="50.60895" lon="4.03377">
        <ele>80.7</ele>
        <time>2018-07-15T09:33:53.000Z</time>
      </trkpt>
      <trkpt lat="50.60884" lon="4.03398">
        <ele>83.68</ele>
        <time>2018-07-15T09:34:03.000Z</time>
      </trkpt>
      <trkpt lat="50.60874" lon="4.03407">
        <ele>79.96</ele>
        <time>2018-07-15T09:34:13.000Z</time>
      </trkpt>
      <trkpt lat="50.60861" lon="4.03421">
        <ele>77.69</ele>
        <time>2018-07-15T09:34:23.000Z</time>
      </trkpt>
      <trkpt lat="50.60844" lon="4.03442">
        <ele>74.76</ele>
        <time>2018-07-15T09:34:33.000Z</time>
      </trkpt>
      <trkpt lat="50.60832" lon="4.0346">
        <ele>76.69</ele>
        <time>2018-07-15T09:34:43.000Z</time>
      </trkpt>
      <trkpt lat="50.60825" lon="4.03475">
        <ele>75.64</ele>
        <time>2018-07-15T09:34:53.000Z</time>
      </trkpt>
      <trkpt lat="50.60817" lon="4.03493">
        <ele>73.96</ele>
        <time>2018-07-15T09:35:03.000Z</time>
      </trkpt>
      <trkpt lat="50.60809" lon="4.03511">
        <ele>76.61</ele>
        <time>2018-07-15T09:35:13.000Z</time>
      </trkpt>
      <trkpt lat="50.60807" lon="4.03526">
        <ele>75.94</ele>
        <time>2018-07-15T09:35:23.000Z</time>
      </trkpt>
      <trkpt lat="50.60803" lon="4.03549">
        <ele>72.75</ele>
        <time>2018-07-15T09:35:33.000Z</time>
      </trkpt>
      <trkpt lat="50.60798" lon="4.03587">
        <ele>72.7</ele>
        <time>2018-07-15T09:35:43.000Z</time>
      </trkpt>
      <trkpt lat="50.60794" lon="4.03624">
        <ele>72.88</ele>
        <time>2018-07-15T09:35:53.000Z</time>
      </trkpt>
      <trkpt lat="50.60788" lon="4.03653">
        <ele>75.38</ele>
        <time>2018-07-15T09:36:03.000Z</time>
      </trkpt>
      <trkpt lat="50.60782" lon="4.03667">
        <ele>69.96</ele>
        <time>2018-07-15T09:36:13.000Z</time>
      </trkpt>
      <trkpt lat="50.60779" lon="4.03679">
        <ele>66.75</ele>
        <time>2018-07-15T09:36:23.000Z</time>
      </trkpt>
      <trkpt lat="50.60776" lon="4.03696">
        <ele>68.69</ele>
        <time>2018-07-15T09:36:33.000Z</time>
      </trkpt>
      <trkpt lat="50.60776" lon="4.03712">
        <ele>73.61</ele>
        <time>2018-07-15T09:36:43.000Z</time>
      </trkpt>
      <trkpt lat="50.6078" lon="4.03729">
        <ele>79.61</ele>
        <time>2018-07-15T09:36:53.000Z</time>
      </trkpt>
      <trkpt lat="50.60779" lon="4.03749">
        <ele>76.88</ele>
        <time>2018-07-15T09:37:03.000Z</time>
      </trkpt>
      <trkpt lat="50.60781" lon="4.03772">
        <ele>78.69</ele>
        <time>2018-07-15T09:37:13.000Z</time>
      </trkpt>
      <trkpt lat="50.60784" lon="4.038">
        <ele>73.79</ele>
        <time>2018-07-15T09:37:23.000Z</time>
      </trkpt>
      <trkpt lat="50.60779" lon="4.03822">
        <ele>69.94</ele>
        <time>2018-07-15T09:37:33.000Z</time>
      </trkpt>
      <trkpt lat="50.60783" lon="4.03846">
        <ele>70.68</ele>
        <time>2018-07-15T09:37:43.000Z</time>
      </trkpt>
      <trkpt lat="50.60787" lon="4.03864">
        <ele>71.69</ele>
        <time>2018-07-15T09:37:53.000Z</time>
      </trkpt>
      <trkpt lat="50.60798" lon="4.03886">
        <ele>68.93</ele>
        <time>2018-07-15T09:38:03.000Z</time>
      </trkpt>
      <trkpt lat="50.6081" lon="4.03906">
        <ele>71.69</ele>
        <time>2018-07-15T09:38:13.000Z</time>
      </trkpt>
      <trkpt lat="50.60819" lon="4.03924">
        <ele>73.6</ele>
        <time>2018-07-15T09:38:23.000Z</time>
      </trkpt>
      <trkpt lat="50.60825" lon="4.03941">
        <ele>75.19</ele>
        <time>2018-07-15T09:38:33.000Z</time>
      </trkpt>
      <trkpt lat="50.60829" lon="4.03955">
        <ele>74.67</ele>
        <time>2018-07-15T09:38:43.000Z</time>
      </trkpt>
      <trkpt lat="50.60839" lon="4.03974">
        <ele>73.7</ele>
        <time>2018-07-15T09:38:53.000Z</time>
      </trkpt>
      <trkpt lat="50.60857" lon="4.03994">
        <ele>73.61</ele>
        <time>2018-07-15T09:39:03.000Z</time>
      </trkpt>
      <trkpt lat="50.60868" lon="4.04009">
        <ele>70.56</ele>
        <time>2018-07-15T09:39:13.000Z</time>
      </trkpt>
      <trkpt lat="50.60879" lon="4.04012">
        <ele>74.67</ele>
        <time>2018-07-15T09:39:23.000Z</time>
      </trkpt>
      <trkpt lat="50.60888" lon="4.04023">
        <ele>80.68</ele>
        <time>2018-07-15T09:39:33.000Z</time>
      </trkpt>
      <trkpt lat="50.60888" lon="4.04054">
        <ele>78.68</ele>
        <time>2018-07-15T09:39:43.000Z</time>
      </trkpt>
      <trkpt lat="50.60884" lon="4.04075">
        <ele>77.67</ele>
        <time>2018-07-15T09:39:53.000Z</time>
      </trkpt>
      <trkpt lat="50.60875" lon="4.04103">
        <ele>74.75</ele>
        <time>2018-07-15T09:40:03.000Z</time>
      </trkpt>
      <trkpt lat="50.60869" lon="4.04122">
        <ele>71.69</ele>
        <time>2018-07-15T09:40:13.000Z</time>
      </trkpt>
      <trkpt lat="50.60865" lon="4.04143">
        <ele>70.45</ele>
        <time>2018-07-15T09:40:23.000Z</time>
      </trkpt>
      <trkpt lat="50.60864" lon="4.04169">
        <ele>70.25</ele>
        <time>2018-07-15T09:40:33.000Z</time>
      </trkpt>
      <trkpt lat="50.60861" lon="4.04193">
        <ele>67.81</ele>
        <time>2018-07-15T09:40:43.000Z</time>
      </trkpt>
      <trkpt lat="50.60857" lon="4.04208">
        <ele>68.56</ele>
        <time>2018-07-15T09:40:53.000Z</time>
      </trkpt>
      <trkpt lat="50.60849" lon="4.04228">
        <ele>74.69</ele>
        <time>2018-07-15T09:41:03.000Z</time>
      </trkpt>
      <trkpt lat="50.60856" lon="4.0422">
        <ele>77.43</ele>
        <time>2018-07-15T09:41:13.000Z</time>
      </trkpt>
      <trkpt lat="50.60868" lon="4.04234">
        <ele>79.62</ele>
        <time>2018-07-15T09:41:23.000Z</time>
      </trkpt>
      <trkpt lat="50.60873" lon="4.04251">
        <ele>75.5</ele>
        <time>2018-07-15T09:41:33.000Z</time>
      </trkpt>
      <trkpt lat="50.60876" lon="4.04271">
        <ele>67.7</ele>
        <time>2018-07-15T09:41:43.000Z</time>
      </trkpt>
      <trkpt lat="50.6088" lon="4.04299">
        <ele>68.42</ele>
        <time>2018-07-15T09:41:53.000Z</time>
      </trkpt>
      <trkpt lat="50.60894" lon="4.04327">
        <ele>72.62</ele>
        <time>2018-07-15T09:42:03.000Z</time>
      </trkpt>
      <trkpt lat="50.60914" lon="4.04326">
        <ele>71.68</ele>
        <time>2018-07-15T09:42:13.000Z</time>
      </trkpt>
      <trkpt lat="50.60918" lon="4.04332">
        <ele>71.68</ele>
        <time>2018-07-15T09:42:23.000Z</time>
      </trkpt>
      <trkpt lat="50.60914" lon="4.04337">
        <ele>73.85</ele>
        <time>2018-07-15T09:42:33.000Z</time>
      </trkpt>
      <trkpt lat="50.60907" lon="4.04344">
        <ele>73.68</ele>
        <time>2018-07-15T09:42:43.000Z</time>
      </trkpt>
      <trkpt lat="50.60902" lon="4.04366">
        <ele>73.68</ele>
        <time>2018-07-15T09:42:53.000Z</time>
      </trkpt>
      <trkpt lat="50.60897" lon="4.04366">
        <ele>70.69</ele>
        <time>2018-07-15T09:43:03.000Z</time>
      </trkpt>
      <trkpt lat="50.60891" lon="4.04361">
        <ele>69.43</ele>
        <time>2018-07-15T09:43:13.000Z</time>
      </trkpt>
      <trkpt lat="50.60877" lon="4.04358">
        <ele>67.94</ele>
        <time>2018-07-15T09:43:23.000Z</time>
      </trkpt>
      <trkpt lat="50.60868" lon="4.04347">
        <ele>67.69</ele>
        <time>2018-07-15T09:43:33.000Z</time>
      </trkpt>
      <trkpt lat="50.6086" lon="4.04335">
        <ele>66.76</ele>
        <time>2018-07-15T09:43:43.000Z</time>
      </trkpt>
      <trkpt lat="50.6086" lon="4.04331">
        <ele>69.6</ele>
        <time>2018-07-15T09:43:53.000Z</time>
      </trkpt>
      <trkpt lat="50.60864" lon="4.0433">
        <ele>68.5</ele>
        <time>2018-07-15T09:44:03.000Z</time>
      </trkpt>
      <trkpt lat="50.60866" lon="4.04332">
        <ele>66.89</ele>
        <time>2018-07-15T09:44:13.000Z</time>
      </trkpt>
      <trkpt lat="50.60867" lon="4.04332">
        <ele>66.73</ele>
        <time>2018-07-15T09:44:57.000Z</time>
      </trkpt>
      <trkpt lat="50.60871" lon="4.04338">
        <ele>72.5</ele>
        <time>2018-07-15T09:45:04.000Z</time>
      </trkpt>
      <trkpt lat="50.60872" lon="4.04337">
        <ele>70.68</ele>
        <time>2018-07-15T09:45:14.000Z</time>
      </trkpt>
      <trkpt lat="50.60872" lon="4.04341">
        <ele>67.7</ele>
        <time>2018-07-15T09:45:24.000Z</time>
      </trkpt>
      <trkpt lat="50.60873" lon="4.04342">
        <ele>68.68</ele>
        <time>2018-07-15T09:45:57.000Z</time>
      </trkpt>
      <trkpt lat="50.60873" lon="4.04342">
        <ele>68.68</ele>
        <time>2018-07-15T09:46:04.000Z</time>
      </trkpt>
    </trkseg>
  </trk>
</gpx>